Time,TemperatureF,DewpointF,PressureIn,WindDirection,WindDirectionDegrees,WindSpeedMPH,WindSpeedGustMPH,Humidity,HourlyPrecipIn,Conditions,Clouds,dailyrainin,SoftwareType,DateUTC
2013-04-04 00:00:00,37.3,19.9,30.33,ENE,69,0.0,0.0,49,0.00,,,0.00,Wunderground v.1.15,2013-04-04 04:00:00,
2013-04-04 00:01:00,37.1,19.7,30.33,ENE,69,0.0,0.0,49,0.00,,,0.00,Wunderground v.1.15,2013-04-04 04:01:00,
2013-04-04 00:03:00,37.0,20.1,30.33,ENE,69,0.0,0.0,50,0.00,,,0.00,Wunderground v.1.15,2013-04-04 04:03:00,
2013-04-04 00:06:00,36.7,19.8,30.33,ENE,69,0.0,0.0,50,0.00,,,0.00,Wunderground v.1.15,2013-04-04 04:06:00,
2013-04-04 00:07:00,36.7,19.8,30.33,ENE,69,0.0,0.0,50,0.00,,,0.00,Wunderground v.1.15,2013-04-04 04:07:00,
2013-04-04 00:09:00,36.5,19.6,30.33,ENE,69,0.0,0.0,50,0.00,,,0.00,Wunderground v.1.15,2013-04-04 04:09:00,
2013-04-04 00:11:00,36.4,19.5,30.33,ENE,69,0.0,0.0,50,0.00,,,0.00,Wunderground v.1.15,2013-04-04 04:11:00,
2013-04-04 00:15:00,36.3,19.9,30.33,ENE,69,0.0,0.0,51,0.00,,,0.00,Wunderground v.1.15,2013-04-04 04:15:00,
2013-04-04 00:18:00,36.1,20.2,30.33,ENE,69,0.0,0.0,52,0.00,,,0.00,Wunderground v.1.15,2013-04-04 04:18:00,
2013-04-04 00:19:00,36.1,20.6,30.33,ENE,69,0.0,0.0,53,0.00,,,0.00,Wunderground v.1.15,2013-04-04 04:19:00,
2013-04-04 00:22:00,36.0,20.9,30.33,ENE,69,0.0,0.0,54,0.00,,,0.00,Wunderground v.1.15,2013-04-04 04:22:00,
2013-04-04 00:27:00,35.7,20.7,30.33,ENE,69,0.0,0.0,54,0.00,,,0.00,Wunderground v.1.15,2013-04-04 04:27:00,
2013-04-04 00:28:00,35.5,20.5,30.33,ENE,69,0.0,0.0,54,0.00,,,0.00,Wunderground v.1.15,2013-04-04 04:28:00,
2013-04-04 00:30:00,35.4,20.4,30.32,ENE,69,0.0,0.0,54,0.00,,,0.00,Wunderground v.1.15,2013-04-04 04:30:00,
2013-04-04 00:31:00,35.2,20.2,30.32,ENE,69,0.0,0.0,54,0.00,,,0.00,Wunderground v.1.15,2013-04-04 04:31:00,
2013-04-04 00:35:00,34.8,19.8,30.32,ENE,69,0.0,0.0,54,0.00,,,0.00,Wunderground v.1.15,2013-04-04 04:35:00,
2013-04-04 00:36:00,34.8,19.8,30.32,ENE,69,0.0,0.0,54,0.00,,,0.00,Wunderground v.1.15,2013-04-04 04:36:00,
2013-04-04 00:39:00,34.6,20.1,30.32,ENE,69,0.0,0.0,55,0.00,,,0.00,Wunderground v.1.15,2013-04-04 04:39:00,
2013-04-04 00:41:00,34.8,20.7,30.32,ENE,69,0.0,0.0,56,0.00,,,0.00,Wunderground v.1.15,2013-04-04 04:41:00,
2013-04-04 00:43:00,34.8,20.7,30.32,ENE,69,0.0,0.0,56,0.00,,,0.00,Wunderground v.1.15,2013-04-04 04:43:00,
2013-04-04 00:45:00,34.8,20.3,30.32,ENE,69,0.0,0.0,55,0.00,,,0.00,Wunderground v.1.15,2013-04-04 04:45:00,
2013-04-04 00:46:00,34.8,21.1,30.32,ENE,69,0.0,0.0,57,0.00,,,0.00,Wunderground v.1.15,2013-04-04 04:46:00,
2013-04-04 00:47:00,34.8,21.1,30.32,ENE,69,0.0,0.0,57,0.00,,,0.00,Wunderground v.1.15,2013-04-04 04:47:00,
2013-04-04 00:50:00,34.9,20.4,30.32,ENE,69,0.0,0.0,55,0.00,,,0.00,Wunderground v.1.15,2013-04-04 04:50:00,
2013-04-04 00:52:00,35.2,20.2,30.32,ENE,69,0.0,0.0,54,0.00,,,0.00,Wunderground v.1.15,2013-04-04 04:52:00,
2013-04-04 00:55:00,35.5,19.1,30.32,ENE,69,0.0,0.0,51,0.00,,,0.00,Wunderground v.1.15,2013-04-04 04:55:00,
2013-04-04 00:56:00,35.7,18.9,30.32,ENE,69,0.0,0.0,50,0.00,,,0.00,Wunderground v.1.15,2013-04-04 04:56:00,
2013-04-04 00:58:00,36.1,19.2,30.32,ENE,69,0.0,0.0,50,0.00,,,0.00,Wunderground v.1.15,2013-04-04 04:58:00,
2013-04-04 01:00:00,36.4,19.5,30.31,ENE,69,0.0,0.0,50,0.00,,,0.00,Wunderground v.1.15,2013-04-04 05:00:00,
2013-04-04 01:01:00,36.4,19.0,30.31,ENE,69,0.0,0.0,49,0.00,,,0.00,Wunderground v.1.15,2013-04-04 05:01:00,
2013-04-04 01:03:00,36.5,19.1,30.31,ENE,69,0.0,0.0,49,0.00,,,0.00,Wunderground v.1.15,2013-04-04 05:03:00,
2013-04-04 01:04:00,36.7,18.8,30.31,ENE,69,0.0,0.0,48,0.00,,,0.00,Wunderground v.1.15,2013-04-04 05:04:00,
2013-04-04 01:07:00,36.8,18.9,30.31,ENE,69,0.0,0.0,48,0.00,,,0.00,Wunderground v.1.15,2013-04-04 05:07:00,
2013-04-04 01:09:00,36.8,18.9,30.31,ENE,69,0.0,0.0,48,0.00,,,0.00,Wunderground v.1.15,2013-04-04 05:09:00,
2013-04-04 01:11:00,37.0,19.1,30.31,ENE,69,0.0,0.0,48,0.00,,,0.00,Wunderground v.1.15,2013-04-04 05:11:00,
2013-04-04 01:13:00,37.0,19.6,30.31,ENE,69,0.0,0.0,49,0.00,,,0.00,Wunderground v.1.15,2013-04-04 05:13:00,
2013-04-04 01:14:00,37.0,19.6,30.31,ENE,69,0.0,0.0,49,0.00,,,0.00,Wunderground v.1.15,2013-04-04 05:14:00,
2013-04-04 01:16:00,36.8,19.9,30.30,ENE,69,0.0,0.0,50,0.00,,,0.00,Wunderground v.1.15,2013-04-04 05:16:00,
2013-04-04 01:20:00,36.7,20.3,30.30,ENE,69,0.0,0.0,51,0.00,,,0.00,Wunderground v.1.15,2013-04-04 05:20:00,
2013-04-04 01:22:00,36.5,21.0,30.30,ENE,69,0.0,0.0,53,0.00,,,0.00,Wunderground v.1.15,2013-04-04 05:22:00,
2013-04-04 01:25:00,36.3,20.8,30.30,ENE,69,0.0,0.0,53,0.00,,,0.00,Wunderground v.1.15,2013-04-04 05:25:00,
2013-04-04 01:31:00,36.1,18.8,30.30,ENE,69,0.0,0.0,49,0.00,,,0.00,Wunderground v.1.15,2013-04-04 05:31:00,
2013-04-04 01:32:00,36.1,18.8,30.30,ENE,69,0.0,0.0,49,0.00,,,0.00,Wunderground v.1.15,2013-04-04 05:32:00,
2013-04-04 01:34:00,36.1,18.8,30.30,ENE,69,0.0,0.0,49,0.00,,,0.00,Wunderground v.1.15,2013-04-04 05:34:00,
2013-04-04 01:37:00,36.1,19.7,30.30,ENE,69,0.0,0.0,51,0.00,,,0.00,Wunderground v.1.15,2013-04-04 05:37:00,
2013-04-04 01:41:00,36.0,19.6,30.30,ENE,69,0.0,0.0,51,0.00,,,0.00,Wunderground v.1.15,2013-04-04 05:41:00,
2013-04-04 01:42:00,36.0,19.6,30.30,ENE,69,0.0,0.0,51,0.00,,,0.00,Wunderground v.1.15,2013-04-04 05:42:00,
2013-04-04 01:43:00,36.0,19.6,30.30,ENE,69,0.0,0.0,51,0.00,,,0.00,Wunderground v.1.15,2013-04-04 05:43:00,
2013-04-04 01:45:00,36.0,19.1,30.30,ENE,69,0.0,0.0,50,0.00,,,0.00,Wunderground v.1.15,2013-04-04 05:45:00,
2013-04-04 01:51:00,36.1,18.8,30.30,ENE,69,0.0,0.0,49,0.00,,,0.00,Wunderground v.1.15,2013-04-04 05:51:00,
2013-04-04 01:55:00,36.1,18.8,30.30,ENE,69,0.0,0.0,49,0.00,,,0.00,Wunderground v.1.15,2013-04-04 05:55:00,
2013-04-04 01:56:00,36.1,18.8,30.30,ENE,69,0.0,0.0,49,0.00,,,0.00,Wunderground v.1.15,2013-04-04 05:56:00,
2013-04-04 01:57:00,36.1,18.8,30.30,ENE,69,0.0,0.0,49,0.00,,,0.00,Wunderground v.1.15,2013-04-04 05:57:00,
2013-04-04 02:00:00,36.1,18.8,30.30,ENE,69,0.0,0.0,49,0.00,,,0.00,Wunderground v.1.15,2013-04-04 06:00:00,
2013-04-04 02:01:00,36.1,18.8,30.30,ENE,69,0.0,0.0,49,0.00,,,0.00,Wunderground v.1.15,2013-04-04 06:01:00,
2013-04-04 02:02:00,36.1,18.3,30.30,ENE,69,0.0,0.0,48,0.00,,,0.00,Wunderground v.1.15,2013-04-04 06:02:00,
2013-04-04 02:03:00,36.1,18.3,30.30,ENE,69,0.0,0.0,48,0.00,,,0.00,Wunderground v.1.15,2013-04-04 06:03:00,
2013-04-04 02:07:00,36.1,19.2,30.30,ENE,69,0.0,0.0,50,0.00,,,0.00,Wunderground v.1.15,2013-04-04 06:07:00,
2013-04-04 02:08:00,36.0,18.7,30.30,ENE,69,0.0,0.0,49,0.00,,,0.00,Wunderground v.1.15,2013-04-04 06:08:00,
2013-04-04 02:09:00,36.0,18.7,30.30,ENE,69,0.0,0.0,49,0.00,,,0.00,Wunderground v.1.15,2013-04-04 06:09:00,
2013-04-04 02:11:00,36.0,18.7,30.30,ENE,69,0.0,0.0,49,0.00,,,0.00,Wunderground v.1.15,2013-04-04 06:11:00,
2013-04-04 02:14:00,36.0,18.2,30.30,ENE,69,0.0,0.0,48,0.00,,,0.00,Wunderground v.1.15,2013-04-04 06:14:00,
2013-04-04 02:17:00,36.0,19.1,30.30,ENE,69,0.0,0.0,50,0.00,,,0.00,Wunderground v.1.15,2013-04-04 06:17:00,
2013-04-04 02:18:00,36.0,18.7,30.30,ENE,69,0.0,0.0,49,0.00,,,0.00,Wunderground v.1.15,2013-04-04 06:18:00,
2013-04-04 02:19:00,36.0,19.1,30.30,ENE,69,0.0,0.0,50,0.00,,,0.00,Wunderground v.1.15,2013-04-04 06:19:00,
2013-04-04 02:23:00,35.8,19.0,30.30,ENE,69,0.0,0.0,50,0.00,,,0.00,Wunderground v.1.15,2013-04-04 06:23:00,
2013-04-04 02:24:00,35.8,19.0,30.30,ENE,69,0.0,0.0,50,0.00,,,0.00,Wunderground v.1.15,2013-04-04 06:24:00,
2013-04-04 02:25:00,35.8,18.5,30.30,ENE,69,0.0,0.0,49,0.00,,,0.00,Wunderground v.1.15,2013-04-04 06:25:00,
2013-04-04 02:30:00,35.8,18.0,30.29,ENE,69,0.0,0.0,48,0.00,,,0.00,Wunderground v.1.15,2013-04-04 06:30:00,
2013-04-04 02:32:00,35.8,18.5,30.29,ENE,69,0.0,0.0,49,0.00,,,0.00,Wunderground v.1.15,2013-04-04 06:32:00,
2013-04-04 02:33:00,35.8,18.5,30.29,ENE,69,0.0,0.0,49,0.00,,,0.00,Wunderground v.1.15,2013-04-04 06:33:00,
2013-04-04 02:36:00,35.8,18.5,30.29,ENE,69,0.0,0.0,49,0.00,,,0.00,Wunderground v.1.15,2013-04-04 06:36:00,
2013-04-04 02:38:00,35.8,18.5,30.29,ENE,69,0.0,0.0,49,0.00,,,0.00,Wunderground v.1.15,2013-04-04 06:38:00,
2013-04-04 02:39:00,35.8,19.0,30.29,ENE,69,0.0,0.0,50,0.00,,,0.00,Wunderground v.1.15,2013-04-04 06:39:00,
2013-04-04 02:43:00,35.7,18.9,30.29,ENE,69,0.0,0.0,50,0.00,,,0.00,Wunderground v.1.15,2013-04-04 06:43:00,
2013-04-04 02:44:00,35.7,19.3,30.29,ENE,69,0.0,0.0,51,0.00,,,0.00,Wunderground v.1.15,2013-04-04 06:44:00,
2013-04-04 02:46:00,35.7,18.4,30.27,ENE,69,0.0,0.0,49,0.00,,,0.00,Wunderground v.1.15,2013-04-04 06:46:00,
2013-04-04 02:47:00,35.7,18.9,30.27,ENE,69,0.0,0.0,50,0.00,,,0.00,Wunderground v.1.15,2013-04-04 06:47:00,
2013-04-04 02:48:00,35.7,18.9,30.27,ENE,69,0.0,0.0,50,0.00,,,0.00,Wunderground v.1.15,2013-04-04 06:48:00,
2013-04-04 02:52:00,35.8,19.0,30.27,ENE,69,0.0,0.0,50,0.00,,,0.00,Wunderground v.1.15,2013-04-04 06:52:00,
2013-04-04 02:53:00,35.8,19.0,30.27,ENE,69,0.0,0.0,50,0.00,,,0.00,Wunderground v.1.15,2013-04-04 06:53:00,
2013-04-04 02:54:00,35.8,18.5,30.27,ENE,69,0.0,0.0,49,0.00,,,0.00,Wunderground v.1.15,2013-04-04 06:54:00,
2013-04-04 02:56:00,35.8,19.0,30.27,ENE,69,0.0,0.0,50,0.00,,,0.00,Wunderground v.1.15,2013-04-04 06:56:00,
2013-04-04 02:59:00,36.0,19.1,30.27,ENE,69,0.0,0.0,50,0.00,,,0.00,Wunderground v.1.15,2013-04-04 06:59:00,
2013-04-04 03:00:00,36.0,18.7,30.27,ENE,69,0.0,0.0,49,0.00,,,0.00,Wunderground v.1.15,2013-04-04 07:00:00,
2013-04-04 03:01:00,36.0,18.7,30.27,ENE,69,0.0,0.0,49,0.00,,,0.00,Wunderground v.1.15,2013-04-04 07:01:00,
2013-04-04 03:05:00,36.1,19.2,30.27,ENE,69,0.0,0.0,50,0.00,,,0.00,Wunderground v.1.15,2013-04-04 07:05:00,
2013-04-04 03:06:00,36.1,19.2,30.27,ENE,69,0.0,0.0,50,0.00,,,0.00,Wunderground v.1.15,2013-04-04 07:06:00,
2013-04-04 03:07:00,36.3,18.9,30.27,ENE,69,0.0,0.0,49,0.00,,,0.00,Wunderground v.1.15,2013-04-04 07:07:00,
2013-04-04 03:09:00,36.4,18.6,30.27,ENE,69,0.0,0.0,48,0.00,,,0.00,Wunderground v.1.15,2013-04-04 07:09:00,
2013-04-04 03:12:00,36.4,19.0,30.27,ENE,69,0.0,0.0,49,0.00,,,0.00,Wunderground v.1.15,2013-04-04 07:12:00,
2013-04-04 03:14:00,36.7,18.8,30.27,ENE,71,0.0,0.0,48,0.00,,,0.00,Wunderground v.1.15,2013-04-04 07:14:00,
2013-04-04 03:15:00,36.8,18.9,30.26,ENE,71,0.0,0.0,48,0.00,,,0.00,Wunderground v.1.15,2013-04-04 07:15:00,
2013-04-04 03:17:00,37.0,19.1,30.26,ENE,71,0.0,0.0,48,0.00,,,0.00,Wunderground v.1.15,2013-04-04 07:17:00,
2013-04-04 03:20:00,37.0,19.1,30.26,ENE,76,0.0,0.0,48,0.00,,,0.00,Wunderground v.1.15,2013-04-04 07:20:00,
2013-04-04 03:22:00,37.0,19.1,30.26,ENE,76,0.0,0.0,48,0.00,,,0.00,Wunderground v.1.15,2013-04-04 07:22:00,
2013-04-04 03:26:00,37.1,18.7,30.26,ENE,76,0.0,1.0,47,0.00,,,0.00,Wunderground v.1.15,2013-04-04 07:26:00,
2013-04-04 03:27:00,37.1,18.7,30.26,ENE,76,0.0,1.0,47,0.00,,,0.00,Wunderground v.1.15,2013-04-04 07:27:00,
2013-04-04 03:31:00,37.4,18.5,30.25,ENE,76,0.0,0.0,46,0.00,,,0.00,Wunderground v.1.15,2013-04-04 07:31:00,
2013-04-04 03:33:00,37.4,18.5,30.25,East,79,0.0,0.0,46,0.00,,,0.00,Wunderground v.1.15,2013-04-04 07:33:00,
2013-04-04 03:36:00,37.5,18.6,30.25,East,79,0.0,1.0,46,0.00,,,0.00,Wunderground v.1.15,2013-04-04 07:36:00,
2013-04-04 03:37:00,37.5,18.6,30.25,East,79,0.0,1.0,46,0.00,,,0.00,Wunderground v.1.15,2013-04-04 07:37:00,
2013-04-04 03:39:00,37.7,18.2,30.25,East,82,1.0,1.0,45,0.00,,,0.00,Wunderground v.1.15,2013-04-04 07:39:00,
2013-04-04 03:41:00,37.7,18.2,30.25,East,82,1.0,2.0,45,0.00,,,0.00,Wunderground v.1.15,2013-04-04 07:41:00,
2013-04-04 03:44:00,37.7,18.2,30.25,East,82,2.0,2.0,45,0.00,,,0.00,Wunderground v.1.15,2013-04-04 07:44:00,
2013-04-04 03:45:00,37.7,18.2,30.24,East,82,2.0,2.0,45,0.00,,,0.00,Wunderground v.1.15,2013-04-04 07:45:00,
2013-04-04 03:47:00,37.8,18.3,30.24,East,82,2.0,2.0,45,0.00,,,0.00,Wunderground v.1.15,2013-04-04 07:47:00,
2013-04-04 03:50:00,37.8,18.3,30.24,East,82,2.0,2.0,45,0.00,,,0.00,Wunderground v.1.15,2013-04-04 07:50:00,
2013-04-04 03:51:00,37.8,18.3,30.24,East,83,2.0,2.0,45,0.00,,,0.00,Wunderground v.1.15,2013-04-04 07:51:00,
2013-04-04 03:52:00,38.0,18.5,30.24,East,83,2.0,2.0,45,0.00,,,0.00,Wunderground v.1.15,2013-04-04 07:52:00,
2013-04-04 03:56:00,38.1,18.1,30.24,East,85,2.0,2.0,44,0.00,,,0.00,Wunderground v.1.15,2013-04-04 07:56:00,
2013-04-04 03:59:00,38.1,18.1,30.24,NE,55,2.0,2.0,44,0.00,,,0.00,Wunderground v.1.15,2013-04-04 07:59:00,
2013-04-04 04:02:00,38.3,18.3,30.24,East,80,1.0,3.0,44,0.00,,,0.00,Wunderground v.1.15,2013-04-04 08:02:00,
2013-04-04 04:04:00,38.3,18.3,30.24,East,80,1.0,3.0,44,0.00,,,0.00,Wunderground v.1.15,2013-04-04 08:04:00,
2013-04-04 04:05:00,38.3,17.7,30.24,East,82,1.0,3.0,43,0.00,,,0.00,Wunderground v.1.15,2013-04-04 08:05:00,
2013-04-04 04:06:00,38.3,17.7,30.24,East,80,1.0,3.0,43,0.00,,,0.00,Wunderground v.1.15,2013-04-04 08:06:00,
2013-04-04 04:11:00,38.4,17.8,30.24,East,83,1.0,1.0,43,0.00,,,0.00,Wunderground v.1.15,2013-04-04 08:11:00,
2013-04-04 04:12:00,38.4,18.4,30.24,East,83,0.0,1.0,44,0.00,,,0.00,Wunderground v.1.15,2013-04-04 08:12:00,
2013-04-04 04:15:00,38.4,18.4,30.24,East,83,0.0,1.0,44,0.00,,,0.00,Wunderground v.1.15,2013-04-04 08:15:00,
2013-04-04 04:16:00,38.3,17.7,30.24,East,83,0.0,1.0,43,0.00,,,0.00,Wunderground v.1.15,2013-04-04 08:16:00,
2013-04-04 04:17:00,38.3,17.7,30.24,East,83,0.0,1.0,43,0.00,,,0.00,Wunderground v.1.15,2013-04-04 08:17:00,
2013-04-04 04:21:00,38.3,18.3,30.24,East,83,0.0,0.0,44,0.00,,,0.00,Wunderground v.1.15,2013-04-04 08:21:00,
2013-04-04 04:24:00,38.1,18.1,30.24,East,83,0.0,0.0,44,0.00,,,0.00,Wunderground v.1.15,2013-04-04 08:24:00,
2013-04-04 04:27:00,38.1,18.1,30.24,East,83,0.0,0.0,44,0.00,,,0.00,Wunderground v.1.15,2013-04-04 08:27:00,
2013-04-04 04:29:00,38.1,17.5,30.24,East,83,0.0,0.0,43,0.00,,,0.00,Wunderground v.1.15,2013-04-04 08:29:00,
2013-04-04 04:31:00,38.1,17.5,30.23,East,83,0.0,0.0,43,0.00,,,0.00,Wunderground v.1.15,2013-04-04 08:31:00,
2013-04-04 04:36:00,37.8,18.3,30.23,East,83,0.0,0.0,45,0.00,,,0.00,Wunderground v.1.15,2013-04-04 08:36:00,
2013-04-04 04:37:00,37.8,18.3,30.23,East,83,0.0,0.0,45,0.00,,,0.00,Wunderground v.1.15,2013-04-04 08:37:00,
2013-04-04 04:38:00,37.8,18.3,30.23,East,83,0.0,0.0,45,0.00,,,0.00,Wunderground v.1.15,2013-04-04 08:38:00,
2013-04-04 04:41:00,37.7,18.2,30.23,East,83,0.0,0.0,45,0.00,,,0.00,Wunderground v.1.15,2013-04-04 08:41:00,
2013-04-04 04:43:00,37.5,18.1,30.23,East,83,0.0,0.0,45,0.00,,,0.00,Wunderground v.1.15,2013-04-04 08:43:00,
2013-04-04 04:44:00,37.5,18.1,30.23,East,83,0.0,0.0,45,0.00,,,0.00,Wunderground v.1.15,2013-04-04 08:44:00,
2013-04-04 04:45:00,37.5,18.1,30.23,East,83,0.0,0.0,45,0.00,,,0.00,Wunderground v.1.15,2013-04-04 08:45:00,
2013-04-04 04:50:00,37.5,18.6,30.23,East,83,0.0,0.0,46,0.00,,,0.00,Wunderground v.1.15,2013-04-04 08:50:00,
2013-04-04 04:51:00,37.5,18.6,30.23,East,83,0.0,0.0,46,0.00,,,0.00,Wunderground v.1.15,2013-04-04 08:51:00,
2013-04-04 04:54:00,37.5,18.1,30.23,East,83,0.0,0.0,45,0.00,,,0.00,Wunderground v.1.15,2013-04-04 08:54:00,
2013-04-04 04:56:00,37.5,18.1,30.23,East,83,0.0,0.0,45,0.00,,,0.00,Wunderground v.1.15,2013-04-04 08:56:00,
2013-04-04 04:58:00,37.5,18.6,30.23,East,83,0.0,0.0,46,0.00,,,0.00,Wunderground v.1.15,2013-04-04 08:58:00,
2013-04-04 05:00:00,37.4,18.5,30.23,East,83,0.0,0.0,46,0.00,,,0.00,Wunderground v.1.15,2013-04-04 09:00:00,
2013-04-04 05:01:00,37.4,18.5,30.23,East,83,0.0,0.0,46,0.00,,,0.00,Wunderground v.1.15,2013-04-04 09:01:00,
2013-04-04 05:02:00,37.4,18.5,30.23,East,83,0.0,0.0,46,0.00,,,0.00,Wunderground v.1.15,2013-04-04 09:02:00,
2013-04-04 05:04:00,37.4,19.0,30.23,East,83,0.0,0.0,47,0.00,,,0.00,Wunderground v.1.15,2013-04-04 09:04:00,
2013-04-04 05:07:00,37.4,18.5,30.23,East,83,0.0,0.0,46,0.00,,,0.00,Wunderground v.1.15,2013-04-04 09:07:00,
2013-04-04 05:08:00,37.4,18.0,30.23,East,83,0.0,0.0,45,0.00,,,0.00,Wunderground v.1.15,2013-04-04 09:08:00,
2013-04-04 05:09:00,37.4,18.5,30.23,East,83,0.0,1.0,46,0.00,,,0.00,Wunderground v.1.15,2013-04-04 09:09:00,
2013-04-04 05:13:00,37.4,18.5,30.23,East,85,0.0,1.0,46,0.00,,,0.00,Wunderground v.1.15,2013-04-04 09:13:00,
2013-04-04 05:15:00,37.4,18.5,30.22,East,85,1.0,1.0,46,0.00,,,0.00,Wunderground v.1.15,2013-04-04 09:15:00,
2013-04-04 05:18:00,37.3,18.4,30.22,East,85,1.0,1.0,46,0.00,,,0.00,Wunderground v.1.15,2013-04-04 09:18:00,
2013-04-04 05:20:00,37.1,18.2,30.22,East,85,0.0,0.0,46,0.00,,,0.00,Wunderground v.1.15,2013-04-04 09:20:00,
2013-04-04 05:21:00,37.1,18.7,30.22,East,85,0.0,0.0,47,0.00,,,0.00,Wunderground v.1.15,2013-04-04 09:21:00,
2013-04-04 05:24:00,37.1,18.7,30.22,East,85,0.0,0.0,47,0.00,,,0.00,Wunderground v.1.15,2013-04-04 09:24:00,
2013-04-04 05:25:00,37.1,18.7,30.22,East,85,0.0,0.0,47,0.00,,,0.00,Wunderground v.1.15,2013-04-04 09:25:00,
2013-04-04 05:27:00,37.1,18.7,30.22,East,85,0.0,0.0,47,0.00,,,0.00,Wunderground v.1.15,2013-04-04 09:27:00,
2013-04-04 05:30:00,37.1,18.2,30.22,East,85,0.0,0.0,46,0.00,,,0.00,Wunderground v.1.15,2013-04-04 09:30:00,
2013-04-04 05:31:00,37.1,18.2,30.22,East,85,0.0,0.0,46,0.00,,,0.00,Wunderground v.1.15,2013-04-04 09:31:00,
2013-04-04 05:33:00,37.3,18.4,30.22,East,85,0.0,0.0,46,0.00,,,0.00,Wunderground v.1.15,2013-04-04 09:33:00,
2013-04-04 05:34:00,37.3,18.4,30.22,East,85,0.0,1.0,46,0.00,,,0.00,Wunderground v.1.15,2013-04-04 09:34:00,
2013-04-04 05:38:00,37.1,18.7,30.22,East,85,0.0,1.0,47,0.00,,,0.00,Wunderground v.1.15,2013-04-04 09:38:00,
2013-04-04 05:39:00,37.1,18.7,30.22,East,85,0.0,1.0,47,0.00,,,0.00,Wunderground v.1.15,2013-04-04 09:39:00,
2013-04-04 05:41:00,37.1,19.2,30.22,East,85,0.0,0.0,48,0.00,,,0.00,Wunderground v.1.15,2013-04-04 09:41:00,
2013-04-04 05:43:00,37.0,19.1,30.22,East,85,0.0,0.0,48,0.00,,,0.00,Wunderground v.1.15,2013-04-04 09:43:00,
2013-04-04 05:44:00,37.0,19.6,30.22,East,85,0.0,0.0,49,0.00,,,0.00,Wunderground v.1.15,2013-04-04 09:44:00,
2013-04-04 05:46:00,36.8,19.9,30.22,East,85,0.0,0.0,50,0.00,,,0.00,Wunderground v.1.15,2013-04-04 09:46:00,
2013-04-04 05:49:00,36.7,19.3,30.22,East,85,0.0,0.0,49,0.00,,,0.00,Wunderground v.1.15,2013-04-04 09:49:00,
2013-04-04 05:50:00,36.7,18.8,30.22,East,85,0.0,0.0,48,0.00,,,0.00,Wunderground v.1.15,2013-04-04 09:50:00,
2013-04-04 05:51:00,36.7,19.3,30.22,East,85,0.0,0.0,49,0.00,,,0.00,Wunderground v.1.15,2013-04-04 09:51:00,
2013-04-04 05:52:00,36.7,19.3,30.22,East,85,0.0,0.0,49,0.00,,,0.00,Wunderground v.1.15,2013-04-04 09:52:00,
2013-04-04 05:55:00,36.7,19.8,30.22,East,85,0.0,0.0,50,0.00,,,0.00,Wunderground v.1.15,2013-04-04 09:55:00,
2013-04-04 05:56:00,36.5,19.6,30.22,East,85,0.0,0.0,50,0.00,,,0.00,Wunderground v.1.15,2013-04-04 09:56:00,
2013-04-04 05:58:00,36.5,19.6,30.22,East,85,0.0,0.0,50,0.00,,,0.00,Wunderground v.1.15,2013-04-04 09:58:00,
2013-04-04 05:59:00,36.5,20.1,30.22,East,85,0.0,0.0,51,0.00,,,0.00,Wunderground v.1.15,2013-04-04 09:59:00,
2013-04-04 06:00:00,36.4,20.0,30.22,East,85,0.0,0.0,51,0.00,,,0.00,Wunderground v.1.15,2013-04-04 10:00:00,
2013-04-04 06:04:00,36.4,19.5,30.22,East,85,0.0,0.0,50,0.00,,,0.00,Wunderground v.1.15,2013-04-04 10:04:00,
2013-04-04 06:06:00,36.3,18.9,30.22,East,85,0.0,0.0,49,0.00,,,0.00,Wunderground v.1.15,2013-04-04 10:06:00,
2013-04-04 06:07:00,36.3,18.9,30.22,East,85,0.0,0.0,49,0.00,,,0.00,Wunderground v.1.15,2013-04-04 10:07:00,
2013-04-04 06:09:00,36.3,18.5,30.22,East,85,0.0,0.0,48,0.00,,,0.00,Wunderground v.1.15,2013-04-04 10:09:00,
2013-04-04 06:10:00,36.3,18.5,30.22,East,85,0.0,0.0,48,0.00,,,0.00,Wunderground v.1.15,2013-04-04 10:10:00,
2013-04-04 06:12:00,36.1,18.8,30.22,East,85,0.0,0.0,49,0.00,,,0.00,Wunderground v.1.15,2013-04-04 10:12:00,
2013-04-04 06:14:00,36.1,19.2,30.22,East,85,0.0,0.0,50,0.00,,,0.00,Wunderground v.1.15,2013-04-04 10:14:00,
2013-04-04 06:16:00,36.1,21.5,30.22,East,85,0.0,0.0,55,0.00,,,0.00,Wunderground v.1.15,2013-04-04 10:16:00,
2013-04-04 06:18:00,36.0,21.4,30.22,East,85,0.0,0.0,55,0.00,,,0.00,Wunderground v.1.15,2013-04-04 10:18:00,
2013-04-04 06:23:00,35.4,20.8,30.22,East,85,0.0,0.0,55,0.00,,,0.00,Wunderground v.1.15,2013-04-04 10:23:00,
2013-04-04 06:24:00,35.2,21.1,30.22,East,85,0.0,0.0,56,0.00,,,0.00,Wunderground v.1.15,2013-04-04 10:24:00,
2013-04-04 06:25:00,35.2,21.1,30.22,East,85,0.0,0.0,56,0.00,,,0.00,Wunderground v.1.15,2013-04-04 10:25:00,
2013-04-04 06:27:00,35.1,20.5,30.22,East,85,0.0,0.0,55,0.00,,,0.00,Wunderground v.1.15,2013-04-04 10:27:00,
2013-04-04 06:29:00,34.9,19.9,30.22,East,85,0.0,0.0,54,0.00,,,0.00,Wunderground v.1.15,2013-04-04 10:29:00,
2013-04-04 06:31:00,34.9,19.5,30.22,East,85,0.0,0.0,53,0.00,,,0.00,Wunderground v.1.15,2013-04-04 10:31:00,
2013-04-04 06:33:00,34.9,19.9,30.22,East,85,0.0,0.0,54,0.00,,,0.00,Wunderground v.1.15,2013-04-04 10:33:00,
2013-04-04 06:35:00,34.9,19.9,30.22,East,85,0.0,0.0,54,0.00,,,0.00,Wunderground v.1.15,2013-04-04 10:35:00,
2013-04-04 06:38:00,34.9,19.5,30.22,East,85,0.0,0.0,53,0.00,,,0.00,Wunderground v.1.15,2013-04-04 10:38:00,
2013-04-04 06:39:00,35.1,19.7,30.22,East,85,0.0,0.0,53,0.00,,,0.00,Wunderground v.1.15,2013-04-04 10:39:00,
2013-04-04 06:41:00,35.1,19.7,30.22,East,85,0.0,0.0,53,0.00,,,0.00,Wunderground v.1.15,2013-04-04 10:41:00,
2013-04-04 06:44:00,35.1,19.7,30.22,East,85,0.0,0.0,53,0.00,,,0.00,Wunderground v.1.15,2013-04-04 10:44:00,
2013-04-04 06:45:00,35.1,19.7,30.22,East,85,0.0,0.0,53,0.00,,,0.00,Wunderground v.1.15,2013-04-04 10:45:00,
2013-04-04 06:46:00,35.1,19.7,30.22,East,85,0.0,0.0,53,0.00,,,0.00,Wunderground v.1.15,2013-04-04 10:46:00,
2013-04-04 06:49:00,35.1,20.1,30.22,East,85,0.0,0.0,54,0.00,,,0.00,Wunderground v.1.15,2013-04-04 10:49:00,
2013-04-04 06:51:00,35.1,20.1,30.22,East,85,0.0,0.0,54,0.00,,,0.00,Wunderground v.1.15,2013-04-04 10:51:00,
2013-04-04 06:53:00,35.1,20.1,30.22,East,85,0.0,0.0,54,0.00,,,0.00,Wunderground v.1.15,2013-04-04 10:53:00,
2013-04-04 06:55:00,35.1,19.7,30.22,East,85,0.0,0.0,53,0.00,,,0.00,Wunderground v.1.15,2013-04-04 10:55:00,
2013-04-04 06:56:00,35.1,19.7,30.22,East,85,0.0,0.0,53,0.00,,,0.00,Wunderground v.1.15,2013-04-04 10:56:00,
2013-04-04 06:57:00,35.1,19.7,30.22,East,85,0.0,0.0,53,0.00,,,0.00,Wunderground v.1.15,2013-04-04 10:57:00,
2013-04-04 07:01:00,35.2,20.6,30.22,East,85,0.0,0.0,55,0.00,,,0.00,Wunderground v.1.15,2013-04-04 11:01:00,
2013-04-04 07:03:00,35.1,21.0,30.22,East,85,0.0,0.0,56,0.00,,,0.00,Wunderground v.1.15,2013-04-04 11:03:00,
2013-04-04 07:05:00,34.9,20.8,30.22,East,85,0.0,0.0,56,0.00,,,0.00,Wunderground v.1.15,2013-04-04 11:05:00,
2013-04-04 07:06:00,34.9,20.4,30.22,East,85,0.0,0.0,55,0.00,,,0.00,Wunderground v.1.15,2013-04-04 11:06:00,
2013-04-04 07:09:00,34.8,20.3,30.22,East,85,0.0,0.0,55,0.00,,,0.00,Wunderground v.1.15,2013-04-04 11:09:00,
2013-04-04 07:10:00,34.8,20.3,30.22,East,85,0.0,0.0,55,0.00,,,0.00,Wunderground v.1.15,2013-04-04 11:10:00,
2013-04-04 07:13:00,34.8,19.8,30.22,East,85,0.0,0.0,54,0.00,,,0.00,Wunderground v.1.15,2013-04-04 11:13:00,
2013-04-04 07:16:00,34.6,20.1,30.22,East,85,0.0,0.0,55,0.00,,,0.00,Wunderground v.1.15,2013-04-04 11:16:00,
2013-04-04 07:17:00,34.6,20.5,30.22,East,85,0.0,0.0,56,0.00,,,0.00,Wunderground v.1.15,2013-04-04 11:17:00,
2013-04-04 07:19:00,34.6,20.1,30.22,East,85,0.0,0.0,55,0.00,,,0.00,Wunderground v.1.15,2013-04-04 11:19:00,
2013-04-04 07:22:00,34.6,20.1,30.22,East,85,0.0,0.0,55,0.00,,,0.00,Wunderground v.1.15,2013-04-04 11:22:00,
2013-04-04 07:23:00,34.5,20.4,30.22,East,85,0.0,0.0,56,0.00,,,0.00,Wunderground v.1.15,2013-04-04 11:23:00,
2013-04-04 07:25:00,34.3,21.0,30.22,East,85,0.0,0.0,58,0.00,,,0.00,Wunderground v.1.15,2013-04-04 11:25:00,
2013-04-04 07:28:00,33.9,21.5,30.22,East,85,0.0,0.0,60,0.00,,,0.00,Wunderground v.1.15,2013-04-04 11:28:00,
2013-04-04 07:31:00,33.6,21.2,30.22,East,85,0.0,0.0,60,0.00,,,0.00,Wunderground v.1.15,2013-04-04 11:31:00,
2013-04-04 07:32:00,33.6,21.2,30.22,East,85,0.0,0.0,60,0.00,,,0.00,Wunderground v.1.15,2013-04-04 11:32:00,
2013-04-04 07:34:00,33.6,20.8,30.22,East,85,0.0,0.0,59,0.00,,,0.00,Wunderground v.1.15,2013-04-04 11:34:00,
2013-04-04 07:35:00,33.4,20.2,30.22,East,85,0.0,0.0,58,0.00,,,0.00,Wunderground v.1.15,2013-04-04 11:35:00,
2013-04-04 07:38:00,33.6,20.8,30.22,East,85,0.0,0.0,59,0.00,,,0.00,Wunderground v.1.15,2013-04-04 11:38:00,
2013-04-04 07:40:00,33.6,20.4,30.22,East,85,0.0,0.0,58,0.00,,,0.00,Wunderground v.1.15,2013-04-04 11:40:00,
2013-04-04 07:41:00,33.6,20.4,30.22,East,85,0.0,0.0,58,0.00,,,0.00,Wunderground v.1.15,2013-04-04 11:41:00,
2013-04-04 07:44:00,33.6,20.4,30.22,East,85,0.0,0.0,58,0.00,,,0.00,Wunderground v.1.15,2013-04-04 11:44:00,
2013-04-04 07:48:00,33.9,21.1,30.22,East,85,0.0,0.0,59,0.00,,,0.00,Wunderground v.1.15,2013-04-04 11:48:00,
2013-04-04 07:49:00,33.9,21.5,30.22,East,85,0.0,0.0,60,0.00,,,0.00,Wunderground v.1.15,2013-04-04 11:49:00,
2013-04-04 07:50:00,33.9,21.5,30.22,East,85,0.0,0.0,60,0.00,,,0.00,Wunderground v.1.15,2013-04-04 11:50:00,
2013-04-04 07:52:00,33.7,21.3,30.22,East,85,0.0,0.0,60,0.00,,,0.00,Wunderground v.1.15,2013-04-04 11:52:00,
2013-04-04 07:53:00,33.7,21.3,30.22,East,85,0.0,0.0,60,0.00,,,0.00,Wunderground v.1.15,2013-04-04 11:53:00,
2013-04-04 07:57:00,33.7,20.9,30.22,East,85,0.0,0.0,59,0.00,,,0.00,Wunderground v.1.15,2013-04-04 11:57:00,
2013-04-04 07:59:00,33.9,21.1,30.22,East,85,0.0,0.0,59,0.00,,,0.00,Wunderground v.1.15,2013-04-04 11:59:00,
2013-04-04 08:00:00,33.9,21.1,30.22,East,85,0.0,0.0,59,0.00,,,0.00,Wunderground v.1.15,2013-04-04 12:00:00,
2013-04-04 08:05:00,33.9,21.1,30.22,East,85,0.0,0.0,59,0.00,,,0.00,Wunderground v.1.15,2013-04-04 12:05:00,
2013-04-04 08:06:00,34.0,20.8,30.22,East,85,0.0,0.0,58,0.00,,,0.00,Wunderground v.1.15,2013-04-04 12:06:00,
2013-04-04 08:09:00,34.2,21.4,30.22,East,85,0.0,0.0,59,0.00,,,0.00,Wunderground v.1.15,2013-04-04 12:09:00,
2013-04-04 08:12:00,34.3,21.0,30.22,East,85,0.0,0.0,58,0.00,,,0.00,Wunderground v.1.15,2013-04-04 12:12:00,
2013-04-04 08:14:00,34.6,21.3,30.22,East,85,0.0,0.0,58,0.00,,,0.00,Wunderground v.1.15,2013-04-04 12:14:00,
2013-04-04 08:16:00,34.6,21.3,30.22,East,85,0.0,0.0,58,0.00,,,0.00,Wunderground v.1.15,2013-04-04 12:16:00,
2013-04-04 08:17:00,34.8,21.1,30.22,East,85,0.0,0.0,57,0.00,,,0.00,Wunderground v.1.15,2013-04-04 12:17:00,
2013-04-04 08:21:00,35.2,21.1,30.22,East,85,0.0,0.0,56,0.00,,,0.00,Wunderground v.1.15,2013-04-04 12:21:00,
2013-04-04 08:22:00,35.2,20.6,30.22,East,85,0.0,0.0,55,0.00,,,0.00,Wunderground v.1.15,2013-04-04 12:22:00,
2013-04-04 08:24:00,35.4,21.2,30.22,East,83,0.0,2.0,56,0.00,,,0.00,Wunderground v.1.15,2013-04-04 12:24:00,
2013-04-04 08:27:00,35.8,20.8,30.22,East,85,0.0,2.0,54,0.00,,,0.00,Wunderground v.1.15,2013-04-04 12:27:00,
2013-04-04 08:29:00,36.0,20.9,30.22,East,83,0.0,2.0,54,0.00,,,0.00,Wunderground v.1.15,2013-04-04 12:29:00,
2013-04-04 08:30:00,36.1,21.0,30.22,East,83,0.0,1.0,54,0.00,,,0.00,Wunderground v.1.15,2013-04-04 12:30:00,
2013-04-04 08:33:00,36.4,21.3,30.22,NE,51,1.0,1.0,54,0.00,,,0.00,Wunderground v.1.15,2013-04-04 12:33:00,
2013-04-04 08:34:00,36.5,21.0,30.22,NE,51,1.0,2.0,53,0.00,,,0.00,Wunderground v.1.15,2013-04-04 12:34:00,
2013-04-04 08:35:00,36.5,21.0,30.22,ENE,73,1.0,2.0,53,0.00,,,0.00,Wunderground v.1.15,2013-04-04 12:35:00,
2013-04-04 08:37:00,36.7,21.2,30.22,ENE,73,1.0,2.0,53,0.00,,,0.00,Wunderground v.1.15,2013-04-04 12:37:00,
2013-04-04 08:41:00,37.0,20.5,30.22,East,92,2.0,3.0,51,0.00,,,0.00,Wunderground v.1.15,2013-04-04 12:41:00,
2013-04-04 08:43:00,37.1,21.1,30.22,East,92,2.0,3.0,52,0.00,,,0.00,Wunderground v.1.15,2013-04-04 12:43:00,
2013-04-04 08:47:00,37.4,20.9,30.22,ENE,69,1.0,3.0,51,0.00,,,0.00,Wunderground v.1.15,2013-04-04 12:47:00,
2013-04-04 08:49:00,37.4,20.4,30.22,East,80,1.0,3.0,50,0.00,,,0.00,Wunderground v.1.15,2013-04-04 12:49:00,
2013-04-04 08:51:00,37.5,20.5,30.22,East,80,2.0,3.0,50,0.00,,,0.00,Wunderground v.1.15,2013-04-04 12:51:00,
2013-04-04 08:55:00,37.8,20.3,30.22,East,93,3.0,5.0,49,0.00,,,0.00,Wunderground v.1.15,2013-04-04 12:55:00,
2013-04-04 08:59:00,38.0,21.0,30.22,ENE,68,2.0,5.0,50,0.00,,,0.00,Wunderground v.1.15,2013-04-04 12:59:00,
2013-04-04 09:01:00,38.1,20.1,30.21,East,83,2.0,4.0,48,0.00,,,0.00,Wunderground v.1.15,2013-04-04 13:01:00,
2013-04-04 09:03:00,38.1,20.6,30.21,East,83,2.0,4.0,49,0.00,,,0.00,Wunderground v.1.15,2013-04-04 13:03:00,
2013-04-04 09:06:00,38.3,20.8,30.21,East,86,2.0,4.0,49,0.00,,,0.00,Wunderground v.1.15,2013-04-04 13:06:00,
2013-04-04 09:07:00,38.3,20.8,30.21,ESE,103,2.0,5.0,49,0.00,,,0.00,Wunderground v.1.15,2013-04-04 13:07:00,
2013-04-04 09:08:00,38.4,20.4,30.21,East,82,2.0,5.0,48,0.00,,,0.00,Wunderground v.1.15,2013-04-04 13:08:00,
2013-04-04 09:12:00,38.4,20.4,30.21,ESE,104,3.0,5.0,48,0.00,,,0.00,Wunderground v.1.15,2013-04-04 13:12:00,
2013-04-04 09:13:00,38.5,20.5,30.21,ENE,73,3.0,5.0,48,0.00,,,0.00,Wunderground v.1.15,2013-04-04 13:13:00,
2013-04-04 09:15:00,38.5,21.0,30.21,East,85,3.0,5.0,49,0.00,,,0.00,Wunderground v.1.15,2013-04-04 13:15:00,
2013-04-04 09:16:00,38.7,20.2,30.21,East,85,3.0,5.0,47,0.00,,,0.00,Wunderground v.1.15,2013-04-04 13:16:00,
2013-04-04 09:19:00,38.7,20.7,30.21,East,99,3.0,5.0,48,0.00,,,0.00,Wunderground v.1.15,2013-04-04 13:19:00,
2013-04-04 09:21:00,38.8,20.3,30.21,East,80,3.0,3.0,47,0.00,,,0.00,Wunderground v.1.15,2013-04-04 13:21:00,
2013-04-04 09:23:00,39.0,21.4,30.21,East,86,3.0,3.0,49,0.00,,,0.00,Wunderground v.1.15,2013-04-04 13:23:00,
2013-04-04 09:24:00,39.0,21.4,30.21,East,86,3.0,3.0,49,0.00,,,0.00,Wunderground v.1.15,2013-04-04 13:24:00,
2013-04-04 09:28:00,39.3,20.7,30.21,East,86,3.0,3.0,47,0.00,,,0.00,Wunderground v.1.15,2013-04-04 13:28:00,
2013-04-04 09:29:00,39.4,22.3,30.21,East,86,2.0,3.0,50,0.00,,,0.00,Wunderground v.1.15,2013-04-04 13:29:00,
2013-04-04 09:30:00,39.4,22.3,30.20,East,88,2.0,3.0,50,0.00,,,0.00,Wunderground v.1.15,2013-04-04 13:30:00,
2013-04-04 09:31:00,39.6,21.5,30.20,East,89,2.0,3.0,48,0.00,,,0.00,Wunderground v.1.15,2013-04-04 13:31:00,
2013-04-04 09:34:00,39.7,21.6,30.20,East,99,2.0,4.0,48,0.00,,,0.00,Wunderground v.1.15,2013-04-04 13:34:00,
2013-04-04 09:35:00,39.7,21.1,30.20,East,99,3.0,4.0,47,0.00,,,0.00,Wunderground v.1.15,2013-04-04 13:35:00,
2013-04-04 09:37:00,39.8,21.2,30.20,East,88,3.0,4.0,47,0.00,,,0.00,Wunderground v.1.15,2013-04-04 13:37:00,
2013-04-04 09:40:00,40.0,20.3,30.20,East,90,4.0,6.0,45,0.00,,,0.00,Wunderground v.1.15,2013-04-04 13:40:00,
2013-04-04 09:42:00,40.0,19.8,30.20,East,100,4.0,6.0,44,0.00,,,0.00,Wunderground v.1.15,2013-04-04 13:42:00,
2013-04-04 09:43:00,40.0,20.3,30.20,East,95,4.0,6.0,45,0.00,,,0.00,Wunderground v.1.15,2013-04-04 13:43:00,
2013-04-04 09:48:00,40.1,19.9,30.19,East,85,6.0,8.0,44,0.00,,,0.00,Wunderground v.1.15,2013-04-04 13:48:00,
2013-04-04 09:49:00,40.3,20.1,30.19,East,88,6.0,8.0,44,0.00,,,0.00,Wunderground v.1.15,2013-04-04 13:49:00,
2013-04-04 09:50:00,40.4,21.7,30.19,ESE,102,5.0,5.0,47,0.00,,,0.00,Wunderground v.1.15,2013-04-04 13:50:00,
2013-04-04 09:53:00,40.7,21.5,30.19,ESE,107,5.0,6.0,46,0.00,,,0.00,Wunderground v.1.15,2013-04-04 13:53:00,
2013-04-04 09:54:00,40.7,21.5,30.19,East,99,5.0,6.0,46,0.00,,,0.00,Wunderground v.1.15,2013-04-04 13:54:00,
2013-04-04 09:56:00,40.7,19.4,30.19,East,86,5.0,7.0,42,0.00,,,0.00,Wunderground v.1.15,2013-04-04 13:56:00,
2013-04-04 09:59:00,40.7,19.9,30.19,East,83,5.0,7.0,43,0.00,,,0.00,Wunderground v.1.15,2013-04-04 13:59:00,
2013-04-04 10:02:00,40.8,20.0,30.19,ESE,104,6.0,6.0,43,0.00,,,0.00,Wunderground v.1.15,2013-04-04 14:02:00,
2013-04-04 10:04:00,41.0,20.2,30.19,ESE,107,6.0,6.0,43,0.00,,,0.00,Wunderground v.1.15,2013-04-04 14:04:00,
2013-04-04 10:05:00,41.1,20.3,30.19,East,88,6.0,6.0,43,0.00,,,0.00,Wunderground v.1.15,2013-04-04 14:05:00,
2013-04-04 10:07:00,41.3,20.5,30.19,ESE,104,5.0,7.0,43,0.00,,,0.00,Wunderground v.1.15,2013-04-04 14:07:00,
2013-04-04 10:08:00,41.3,19.9,30.19,ENE,78,5.0,8.0,42,0.00,,,0.00,Wunderground v.1.15,2013-04-04 14:08:00,
2013-04-04 10:13:00,41.4,20.0,30.19,ESE,104,6.0,7.0,42,0.00,,,0.00,Wunderground v.1.15,2013-04-04 14:13:00,
2013-04-04 10:14:00,41.4,20.0,30.19,East,100,6.0,7.0,42,0.00,,,0.00,Wunderground v.1.15,2013-04-04 14:14:00,
2013-04-04 10:18:00,41.6,19.6,30.18,East,83,6.0,7.0,41,0.00,,,0.00,Wunderground v.1.15,2013-04-04 14:18:00,
2013-04-04 10:19:00,41.7,20.8,30.18,East,82,6.0,8.0,43,0.00,,,0.00,Wunderground v.1.15,2013-04-04 14:19:00,
2013-04-04 10:21:00,41.7,19.7,30.18,East,89,6.0,8.0,41,0.00,,,0.00,Wunderground v.1.15,2013-04-04 14:21:00,
2013-04-04 10:24:00,41.7,19.1,30.18,East,100,6.0,8.0,40,0.00,,,0.00,Wunderground v.1.15,2013-04-04 14:24:00,
2013-04-04 10:25:00,41.7,19.7,30.18,East,90,6.0,8.0,41,0.00,,,0.00,Wunderground v.1.15,2013-04-04 14:25:00,
2013-04-04 10:26:00,41.8,19.2,30.18,East,99,6.0,8.0,40,0.00,,,0.00,Wunderground v.1.15,2013-04-04 14:26:00,
2013-04-04 10:27:00,41.8,19.2,30.18,ESE,103,6.0,8.0,40,0.00,,,0.00,Wunderground v.1.15,2013-04-04 14:27:00,
2013-04-04 10:30:00,42.0,19.4,30.17,East,90,6.0,6.0,40,0.00,,,0.00,Wunderground v.1.15,2013-04-04 14:30:00,
2013-04-04 10:32:00,42.0,19.4,30.17,East,100,6.0,7.0,40,0.00,,,0.00,Wunderground v.1.15,2013-04-04 14:32:00,
2013-04-04 10:34:00,42.1,19.5,30.17,East,85,6.0,7.0,40,0.00,,,0.00,Wunderground v.1.15,2013-04-04 14:34:00,
2013-04-04 10:37:00,42.3,19.7,30.17,East,97,6.0,7.0,40,0.00,,,0.00,Wunderground v.1.15,2013-04-04 14:37:00,
2013-04-04 10:38:00,42.3,19.1,30.17,ESE,106,6.0,7.0,39,0.00,,,0.00,Wunderground v.1.15,2013-04-04 14:38:00,
2013-04-04 10:42:00,42.3,19.1,30.17,ENE,75,6.0,7.0,39,0.00,,,0.00,Wunderground v.1.15,2013-04-04 14:42:00,
2013-04-04 10:43:00,42.3,19.1,30.17,East,85,6.0,7.0,39,0.00,,,0.00,Wunderground v.1.15,2013-04-04 14:43:00,
2013-04-04 10:47:00,42.4,19.2,30.17,ESE,106,6.0,8.0,39,0.00,,,0.00,Wunderground v.1.15,2013-04-04 14:47:00,
2013-04-04 10:48:00,42.4,19.2,30.17,ESE,114,6.0,8.0,39,0.00,,,0.00,Wunderground v.1.15,2013-04-04 14:48:00,
2013-04-04 10:49:00,42.6,19.9,30.17,East,82,6.0,8.0,40,0.00,,,0.00,Wunderground v.1.15,2013-04-04 14:49:00,
2013-04-04 10:50:00,42.6,19.9,30.17,East,85,6.0,6.0,40,0.00,,,0.00,Wunderground v.1.15,2013-04-04 14:50:00,
2013-04-04 10:55:00,43.0,19.7,30.17,ESE,107,5.0,6.0,39,0.00,,,0.00,Wunderground v.1.15,2013-04-04 14:55:00,
2013-04-04 10:57:00,43.0,19.1,30.17,ESE,102,5.0,7.0,38,0.00,,,0.00,Wunderground v.1.15,2013-04-04 14:57:00,
2013-04-04 10:58:00,43.1,19.8,30.17,East,82,5.0,7.0,39,0.00,,,0.00,Wunderground v.1.15,2013-04-04 14:58:00,
2013-04-04 11:00:00,43.3,20.0,30.17,ESE,104,4.0,4.0,39,0.00,,,0.00,Wunderground v.1.15,2013-04-04 15:00:00,
2013-04-04 11:02:00,43.3,20.6,30.17,ESE,102,4.0,4.0,40,0.00,,,0.00,Wunderground v.1.15,2013-04-04 15:02:00,
2013-04-04 11:07:00,43.8,20.4,30.17,East,97,4.0,5.0,39,0.00,,,0.00,Wunderground v.1.15,2013-04-04 15:07:00,
2013-04-04 11:08:00,44.1,20.7,30.17,East,97,3.0,5.0,39,0.00,,,0.00,Wunderground v.1.15,2013-04-04 15:08:00,
2013-04-04 11:10:00,44.3,19.6,30.17,ENE,61,3.0,3.0,37,0.00,,,0.00,Wunderground v.1.15,2013-04-04 15:10:00,
2013-04-04 11:13:00,44.7,21.2,30.17,ESE,107,2.0,4.0,39,0.00,,,0.00,Wunderground v.1.15,2013-04-04 15:13:00,
2013-04-04 11:14:00,44.7,20.0,30.17,ESE,106,2.0,4.0,37,0.00,,,0.00,Wunderground v.1.15,2013-04-04 15:14:00,
2013-04-04 11:16:00,44.7,21.8,30.17,ENE,78,2.0,6.0,40,0.00,,,0.00,Wunderground v.1.15,2013-04-04 15:16:00,
2013-04-04 11:19:00,44.7,20.0,30.17,ESE,104,3.0,6.0,37,0.00,,,0.00,Wunderground v.1.15,2013-04-04 15:19:00,
2013-04-04 11:21:00,44.7,18.7,30.17,ESE,117,4.0,6.0,35,0.00,,,0.00,Wunderground v.1.15,2013-04-04 15:21:00,
2013-04-04 11:22:00,44.7,19.3,30.17,East,90,4.0,7.0,36,0.00,,,0.00,Wunderground v.1.15,2013-04-04 15:22:00,
2013-04-04 11:27:00,45.4,18.6,30.17,East,89,5.0,7.0,34,0.00,,,0.00,Wunderground v.1.15,2013-04-04 15:27:00,
2013-04-04 11:28:00,45.4,18.6,30.17,ESE,116,5.0,7.0,34,0.00,,,0.00,Wunderground v.1.15,2013-04-04 15:28:00,
2013-04-04 11:33:00,45.9,19.1,30.16,ESE,113,4.0,5.0,34,0.00,,,0.00,Wunderground v.1.15,2013-04-04 15:33:00,
2013-04-04 11:34:00,46.0,19.8,30.16,East,100,4.0,7.0,35,0.00,,,0.00,Wunderground v.1.15,2013-04-04 15:34:00,
2013-04-04 11:35:00,45.9,18.4,30.16,East,90,4.0,7.0,33,0.00,,,0.00,Wunderground v.1.15,2013-04-04 15:35:00,
2013-04-04 11:36:00,46.0,19.8,30.16,ESE,110,4.0,7.0,35,0.00,,,0.00,Wunderground v.1.15,2013-04-04 15:36:00,
2013-04-04 11:39:00,46.2,19.3,30.16,ESE,103,5.0,8.0,34,0.00,,,0.00,Wunderground v.1.15,2013-04-04 15:39:00,
2013-04-04 11:41:00,46.5,20.3,30.16,ESE,102,5.0,6.0,35,0.00,,,0.00,Wunderground v.1.15,2013-04-04 15:41:00,
2013-04-04 11:44:00,46.5,18.2,30.16,ESE,104,6.0,8.0,32,0.00,,,0.00,Wunderground v.1.15,2013-04-04 15:44:00,
2013-04-04 11:46:00,46.5,18.9,30.16,ESE,107,6.0,8.0,33,0.00,,,0.00,Wunderground v.1.15,2013-04-04 15:46:00,
2013-04-04 11:50:00,46.7,17.6,30.16,East,86,6.0,6.0,31,0.00,,,0.00,Wunderground v.1.15,2013-04-04 15:50:00,
2013-04-04 11:51:00,46.9,19.3,30.16,ENE,61,6.0,6.0,33,0.00,,,0.00,Wunderground v.1.15,2013-04-04 15:51:00,
2013-04-04 11:53:00,47.3,19.6,30.16,ESE,102,6.0,6.0,33,0.00,,,0.00,Wunderground v.1.15,2013-04-04 15:53:00,
2013-04-04 11:58:00,47.9,20.1,30.16,ENE,65,6.0,7.0,33,0.00,,,0.00,Wunderground v.1.15,2013-04-04 15:58:00,
2013-04-04 11:59:00,47.9,18.7,30.16,East,92,5.0,7.0,31,0.00,,,0.00,Wunderground v.1.15,2013-04-04 15:59:00,
2013-04-04 12:00:00,48.1,19.6,30.15,East,97,5.0,5.0,32,0.00,,,0.00,Wunderground v.1.15,2013-04-04 16:00:00,
2013-04-04 12:04:00,48.2,18.2,30.15,East,86,5.0,6.0,30,0.00,,,0.00,Wunderground v.1.15,2013-04-04 16:04:00,
2013-04-04 12:05:00,48.2,18.9,30.15,ESE,102,5.0,6.0,31,0.00,,,0.00,Wunderground v.1.15,2013-04-04 16:05:00,
2013-04-04 12:06:00,48.2,18.9,30.15,ESE,113,5.0,6.0,31,0.00,,,0.00,Wunderground v.1.15,2013-04-04 16:06:00,
2013-04-04 12:09:00,48.4,18.3,30.15,ENE,78,5.0,6.0,30,0.00,,,0.00,Wunderground v.1.15,2013-04-04 16:09:00,
2013-04-04 12:10:00,48.4,17.6,30.15,ESE,112,5.0,7.0,29,0.00,,,0.00,Wunderground v.1.15,2013-04-04 16:10:00,
2013-04-04 12:12:00,48.5,17.6,30.15,East,99,5.0,7.0,29,0.00,,,0.00,Wunderground v.1.15,2013-04-04 16:12:00,
2013-04-04 12:13:00,48.7,20.1,30.15,ESE,106,5.0,8.0,32,0.00,,,0.00,Wunderground v.1.15,2013-04-04 16:13:00,
2013-04-04 12:18:00,48.8,18.7,30.15,East,86,6.0,8.0,30,0.00,,,0.00,Wunderground v.1.15,2013-04-04 16:18:00,
2013-04-04 12:20:00,49.0,18.9,30.15,East,100,7.0,7.0,30,0.00,,,0.00,Wunderground v.1.15,2013-04-04 16:20:00,
2013-04-04 12:21:00,49.3,19.1,30.15,East,89,6.0,7.0,30,0.00,,,0.00,Wunderground v.1.15,2013-04-04 16:21:00,
2013-04-04 12:26:00,49.6,20.2,30.15,East,85,5.0,7.0,31,0.00,,,0.00,Wunderground v.1.15,2013-04-04 16:26:00,
2013-04-04 12:28:00,49.6,18.6,30.15,East,97,5.0,7.0,29,0.00,,,0.00,Wunderground v.1.15,2013-04-04 16:28:00,
2013-04-04 12:32:00,49.6,19.4,30.14,East,100,5.0,10.0,30,0.00,,,0.00,Wunderground v.1.15,2013-04-04 16:32:00,
2013-04-04 12:33:00,49.9,20.4,30.14,East,90,5.0,10.0,31,0.00,,,0.00,Wunderground v.1.15,2013-04-04 16:33:00,
2013-04-04 12:35:00,50.0,18.9,30.14,ESE,116,6.0,10.0,29,0.00,,,0.00,Wunderground v.1.15,2013-04-04 16:35:00,
2013-04-04 12:37:00,49.9,19.7,30.14,ESE,123,6.0,10.0,30,0.00,,,0.00,Wunderground v.1.15,2013-04-04 16:37:00,
2013-04-04 12:42:00,50.0,19.7,30.14,East,96,6.0,7.0,30,0.00,,,0.00,Wunderground v.1.15,2013-04-04 16:42:00,
2013-04-04 12:43:00,50.3,20.8,30.14,ESE,104,6.0,7.0,31,0.00,,,0.00,Wunderground v.1.15,2013-04-04 16:43:00,
2013-04-04 12:48:00,50.6,20.3,30.13,ESE,121,6.0,8.0,30,0.00,,,0.00,Wunderground v.1.15,2013-04-04 16:48:00,
2013-04-04 12:51:00,50.6,20.3,30.13,SE,126,6.0,7.0,30,0.00,,,0.00,Wunderground v.1.15,2013-04-04 16:51:00,
2013-04-04 12:52:00,50.6,19.5,30.13,ESE,123,6.0,7.0,29,0.00,,,0.00,Wunderground v.1.15,2013-04-04 16:52:00,
2013-04-04 12:53:00,50.6,18.6,30.13,SSE,150,6.0,7.0,28,0.00,,,0.00,Wunderground v.1.15,2013-04-04 16:53:00,
2013-04-04 12:56:00,50.4,19.3,30.13,SSE,162,6.0,7.0,29,0.00,,,0.00,Wunderground v.1.15,2013-04-04 16:56:00,
2013-04-04 12:58:00,50.6,18.6,30.13,SSE,150,5.0,7.0,28,0.00,,,0.00,Wunderground v.1.15,2013-04-04 16:58:00,
2013-04-04 12:59:00,50.9,19.7,30.13,ESE,121,4.0,7.0,29,0.00,,,0.00,Wunderground v.1.15,2013-04-04 16:59:00,
2013-04-04 13:01:00,50.9,19.7,30.13,ENE,73,5.0,5.0,29,0.00,,,0.00,Wunderground v.1.15,2013-04-04 17:01:00,
2013-04-04 13:02:00,50.9,18.9,30.13,East,97,4.0,5.0,28,0.00,,,0.00,Wunderground v.1.15,2013-04-04 17:02:00,
2013-04-04 13:04:00,50.7,19.6,30.13,East,92,5.0,6.0,29,0.00,,,0.00,Wunderground v.1.15,2013-04-04 17:04:00,
2013-04-04 13:08:00,50.3,18.4,30.13,East,86,5.0,7.0,28,0.00,,,0.00,Wunderground v.1.15,2013-04-04 17:08:00,
2013-04-04 13:10:00,50.1,18.2,30.13,East,82,5.0,5.0,28,0.00,,,0.00,Wunderground v.1.15,2013-04-04 17:10:00,
2013-04-04 13:11:00,50.3,20.0,30.13,East,80,5.0,5.0,30,0.00,,,0.00,Wunderground v.1.15,2013-04-04 17:11:00,
2013-04-04 13:16:00,50.9,19.7,30.13,East,86,4.0,6.0,29,0.00,,,0.00,Wunderground v.1.15,2013-04-04 17:16:00,
2013-04-04 13:17:00,51.0,20.6,30.13,ESE,113,4.0,9.0,30,0.00,,,0.00,Wunderground v.1.15,2013-04-04 17:17:00,
2013-04-04 13:18:00,50.9,19.7,30.13,SE,130,4.0,9.0,29,0.00,,,0.00,Wunderground v.1.15,2013-04-04 17:18:00,
2013-04-04 13:21:00,50.4,18.5,30.13,ESE,109,5.0,10.0,28,0.00,,,0.00,Wunderground v.1.15,2013-04-04 17:21:00,
2013-04-04 13:23:00,50.3,19.2,30.13,SSE,164,5.0,10.0,29,0.00,,,0.00,Wunderground v.1.15,2013-04-04 17:23:00,
2013-04-04 13:24:00,50.4,18.5,30.13,ESE,123,5.0,10.0,28,0.00,,,0.00,Wunderground v.1.15,2013-04-04 17:24:00,
2013-04-04 13:26:00,50.7,20.4,30.13,ESE,103,6.0,10.0,30,0.00,,,0.00,Wunderground v.1.15,2013-04-04 17:26:00,
2013-04-04 13:29:00,50.6,18.6,30.13,ESE,104,6.0,10.0,28,0.00,,,0.00,Wunderground v.1.15,2013-04-04 17:29:00,
2013-04-04 13:30:00,50.6,19.5,30.12,East,90,6.0,6.0,29,0.00,,,0.00,Wunderground v.1.15,2013-04-04 17:30:00,
2013-04-04 13:31:00,50.6,19.5,30.12,ESE,103,5.0,6.0,29,0.00,,,0.00,Wunderground v.1.15,2013-04-04 17:31:00,
2013-04-04 13:34:00,50.3,20.0,30.12,ENE,78,6.0,6.0,30,0.00,,,0.00,Wunderground v.1.15,2013-04-04 17:34:00,
2013-04-04 13:37:00,50.4,18.5,30.12,ESE,109,5.0,6.0,28,0.00,,,0.00,Wunderground v.1.15,2013-04-04 17:37:00,
2013-04-04 13:39:00,50.7,19.6,30.12,East,96,5.0,6.0,29,0.00,,,0.00,Wunderground v.1.15,2013-04-04 17:39:00,
2013-04-04 13:40:00,50.9,19.7,30.12,East,96,4.0,4.0,29,0.00,,,0.00,Wunderground v.1.15,2013-04-04 17:40:00,
2013-04-04 13:42:00,51.0,19.8,30.12,East,96,4.0,5.0,29,0.00,,,0.00,Wunderground v.1.15,2013-04-04 17:42:00,
2013-04-04 13:44:00,51.0,19.0,30.12,ESE,116,4.0,5.0,28,0.00,,,0.00,Wunderground v.1.15,2013-04-04 17:44:00,
2013-04-04 13:47:00,51.2,20.8,30.11,ESE,109,4.0,7.0,30,0.00,,,0.00,Wunderground v.1.15,2013-04-04 17:47:00,
2013-04-04 13:49:00,51.2,19.2,30.11,ESE,107,4.0,7.0,28,0.00,,,0.00,Wunderground v.1.15,2013-04-04 17:49:00,
2013-04-04 13:52:00,51.5,19.4,30.11,ESE,110,3.0,4.0,28,0.00,,,0.00,Wunderground v.1.15,2013-04-04 17:52:00,
2013-04-04 13:56:00,51.6,17.8,30.11,East,88,4.0,6.0,26,0.00,,,0.00,Wunderground v.1.15,2013-04-04 17:56:00,
2013-04-04 13:57:00,51.6,18.7,30.11,East,83,4.0,6.0,27,0.00,,,0.00,Wunderground v.1.15,2013-04-04 17:57:00,
2013-04-04 14:01:00,52.1,19.9,30.10,South,171,3.0,3.0,28,0.00,,,0.00,Wunderground v.1.15,2013-04-04 18:01:00,
2013-04-04 14:03:00,52.2,20.0,30.10,ESE,120,3.0,4.0,28,0.00,,,0.00,Wunderground v.1.15,2013-04-04 18:03:00,
2013-04-04 14:04:00,52.4,21.0,30.10,East,96,4.0,5.0,29,0.00,,,0.00,Wunderground v.1.15,2013-04-04 18:04:00,
2013-04-04 14:05:00,52.4,21.0,30.10,East,89,4.0,5.0,29,0.00,,,0.00,Wunderground v.1.15,2013-04-04 18:05:00,
2013-04-04 14:09:00,52.8,20.5,30.10,East,85,2.0,5.0,28,0.00,,,0.00,Wunderground v.1.15,2013-04-04 18:09:00,
2013-04-04 14:12:00,53.1,21.6,30.10,East,90,2.0,5.0,29,0.00,,,0.00,Wunderground v.1.15,2013-04-04 18:12:00,
2013-04-04 14:13:00,53.1,20.0,30.10,East,89,3.0,6.0,27,0.00,,,0.00,Wunderground v.1.15,2013-04-04 18:13:00,
2013-04-04 14:15:00,53.1,20.0,30.10,ESE,107,3.0,6.0,27,0.00,,,0.00,Wunderground v.1.15,2013-04-04 18:15:00,
2013-04-04 14:19:00,53.1,19.1,30.10,East,85,3.0,6.0,26,0.00,,,0.00,Wunderground v.1.15,2013-04-04 18:19:00,
2013-04-04 14:20:00,53.3,21.8,30.10,ESE,103,3.0,5.0,29,0.00,,,0.00,Wunderground v.1.15,2013-04-04 18:20:00,
2013-04-04 14:22:00,53.4,21.9,30.10,ESE,107,4.0,6.0,29,0.00,,,0.00,Wunderground v.1.15,2013-04-04 18:22:00,
2013-04-04 14:26:00,53.3,19.2,30.10,East,85,4.0,6.0,26,0.00,,,0.00,Wunderground v.1.15,2013-04-04 18:26:00,
2013-04-04 14:27:00,53.1,18.2,30.10,ENE,62,4.0,6.0,25,0.00,,,0.00,Wunderground v.1.15,2013-04-04 18:27:00,
2013-04-04 14:31:00,53.4,21.1,30.10,East,95,4.0,6.0,28,0.00,,,0.00,Wunderground v.1.15,2013-04-04 18:31:00,
2013-04-04 14:32:00,53.4,19.3,30.10,East,86,4.0,6.0,26,0.00,,,0.00,Wunderground v.1.15,2013-04-04 18:32:00,
2013-04-04 14:33:00,53.4,19.3,30.10,East,86,4.0,6.0,26,0.00,,,0.00,Wunderground v.1.15,2013-04-04 18:33:00,
2013-04-04 14:37:00,53.6,20.4,30.10,NE,49,3.0,6.0,27,0.00,,,0.00,Wunderground v.1.15,2013-04-04 18:37:00,
2013-04-04 14:40:00,54.0,18.9,30.10,East,88,3.0,3.0,25,0.00,,,0.00,Wunderground v.1.15,2013-04-04 18:40:00,
2013-04-04 14:43:00,54.3,19.2,30.10,NNW,336,2.0,3.0,25,0.00,,,0.00,Wunderground v.1.15,2013-04-04 18:43:00,
2013-04-04 14:46:00,54.3,19.2,30.08,East,90,2.0,3.0,25,0.00,,,0.00,Wunderground v.1.15,2013-04-04 18:46:00,
2013-04-04 14:47:00,54.4,21.1,30.08,East,90,2.0,3.0,27,0.00,,,0.00,Wunderground v.1.15,2013-04-04 18:47:00,
2013-04-04 14:48:00,54.4,21.9,30.08,East,90,2.0,3.0,28,0.00,,,0.00,Wunderground v.1.15,2013-04-04 18:48:00,
2013-04-04 14:53:00,55.2,21.8,30.08,East,92,1.0,2.0,27,0.00,,,0.00,Wunderground v.1.15,2013-04-04 18:53:00,
2013-04-04 14:55:00,55.3,20.0,30.08,East,90,1.0,3.0,25,0.00,,,0.00,Wunderground v.1.15,2013-04-04 18:55:00,
2013-04-04 14:57:00,55.3,20.0,30.08,East,96,1.0,5.0,25,0.00,,,0.00,Wunderground v.1.15,2013-04-04 18:57:00,
2013-04-04 14:58:00,55.3,20.0,30.08,ESE,114,1.0,5.0,25,0.00,,,0.00,Wunderground v.1.15,2013-04-04 18:58:00,
2013-04-04 14:59:00,55.2,19.0,30.08,ESE,113,1.0,5.0,24,0.00,,,0.00,Wunderground v.1.15,2013-04-04 18:59:00,
2013-04-04 15:01:00,55.2,19.9,30.08,ENE,66,2.0,4.0,25,0.00,,,0.00,Wunderground v.1.15,2013-04-04 19:01:00,
2013-04-04 15:02:00,55.0,17.8,30.08,East,97,2.0,4.0,23,0.00,,,0.00,Wunderground v.1.15,2013-04-04 19:02:00,
2013-04-04 15:06:00,54.7,19.5,30.08,ESE,103,2.0,4.0,25,0.00,,,0.00,Wunderground v.1.15,2013-04-04 19:06:00,
2013-04-04 15:08:00,54.7,19.5,30.08,ESE,104,2.0,4.0,25,0.00,,,0.00,Wunderground v.1.15,2013-04-04 19:08:00,
2013-04-04 15:11:00,54.9,21.5,30.08,ESE,104,2.0,6.0,27,0.00,,,0.00,Wunderground v.1.15,2013-04-04 19:11:00,
2013-04-04 15:13:00,55.0,21.6,30.08,ESE,109,2.0,6.0,27,0.00,,,0.00,Wunderground v.1.15,2013-04-04 19:13:00,
2013-04-04 15:14:00,55.0,19.8,30.08,ESE,113,2.0,6.0,25,0.00,,,0.00,Wunderground v.1.15,2013-04-04 19:14:00,
2013-04-04 15:18:00,55.2,19.9,30.07,East,90,3.0,6.0,25,0.00,,,0.00,Wunderground v.1.15,2013-04-04 19:18:00,
2013-04-04 15:19:00,55.2,19.9,30.07,South,186,3.0,6.0,25,0.00,,,0.00,Wunderground v.1.15,2013-04-04 19:19:00,
2013-04-04 15:20:00,55.3,20.0,30.07,SW,226,2.0,2.0,25,0.00,,,0.00,Wunderground v.1.15,2013-04-04 19:20:00,
2013-04-04 15:21:00,55.5,21.1,30.07,SSW,200,2.0,5.0,26,0.00,,,0.00,Wunderground v.1.15,2013-04-04 19:21:00,
2013-04-04 15:25:00,56.1,20.7,30.07,SE,126,2.0,5.0,25,0.00,,,0.00,Wunderground v.1.15,2013-04-04 19:25:00,
2013-04-04 15:29:00,56.5,21.1,30.07,South,188,3.0,6.0,25,0.00,,,0.00,Wunderground v.1.15,2013-04-04 19:29:00,
2013-04-04 15:30:00,56.5,20.1,30.06,South,186,3.0,3.0,24,0.00,,,0.00,Wunderground v.1.15,2013-04-04 19:30:00,
2013-04-04 15:34:00,55.9,17.6,30.06,ESE,119,3.0,4.0,22,0.00,,,0.00,Wunderground v.1.15,2013-04-04 19:34:00,
2013-04-04 15:36:00,55.8,19.5,30.06,ESE,121,3.0,4.0,24,0.00,,,0.00,Wunderground v.1.15,2013-04-04 19:36:00,
2013-04-04 15:37:00,55.8,19.5,30.06,ESE,121,2.0,4.0,24,0.00,,,0.00,Wunderground v.1.15,2013-04-04 19:37:00,
2013-04-04 15:42:00,55.3,18.1,30.06,ESE,119,2.0,5.0,23,0.00,,,0.00,Wunderground v.1.15,2013-04-04 19:42:00,
2013-04-04 15:43:00,55.2,18.0,30.06,ESE,119,2.0,5.0,23,0.00,,,0.00,Wunderground v.1.15,2013-04-04 19:43:00,
2013-04-04 15:45:00,55.3,19.1,30.05,ESE,119,2.0,5.0,24,0.00,,,0.00,Wunderground v.1.15,2013-04-04 19:45:00,
2013-04-04 15:47:00,55.3,17.0,30.05,SE,124,2.0,5.0,22,0.00,,,0.00,Wunderground v.1.15,2013-04-04 19:47:00,
2013-04-04 15:48:00,55.5,18.2,30.05,SE,128,3.0,5.0,23,0.00,,,0.00,Wunderground v.1.15,2013-04-04 19:48:00,
2013-04-04 15:51:00,55.6,18.3,30.05,SE,124,2.0,3.0,23,0.00,,,0.00,Wunderground v.1.15,2013-04-04 19:51:00,
2013-04-04 15:53:00,55.8,18.5,30.05,SE,124,1.0,3.0,23,0.00,,,0.00,Wunderground v.1.15,2013-04-04 19:53:00,
2013-04-04 15:57:00,56.1,19.8,30.05,ESE,123,1.0,3.0,24,0.00,,,0.00,Wunderground v.1.15,2013-04-04 19:57:00,
2013-04-04 15:58:00,56.1,18.8,30.05,ESE,113,1.0,3.0,23,0.00,,,0.00,Wunderground v.1.15,2013-04-04 19:58:00,
2013-04-04 16:00:00,56.2,18.8,30.04,South,189,1.0,1.0,23,0.00,,,0.00,Wunderground v.1.15,2013-04-04 20:00:00,
2013-04-04 16:01:00,56.4,18.0,30.04,SW,232,1.0,6.0,22,0.00,,,0.00,Wunderground v.1.15,2013-04-04 20:01:00,
2013-04-04 16:02:00,56.5,19.1,30.04,WSW,241,2.0,6.0,23,0.00,,,0.00,Wunderground v.1.15,2013-04-04 20:02:00,
2013-04-04 16:04:00,56.7,20.3,30.04,SE,128,2.0,6.0,24,0.00,,,0.00,Wunderground v.1.15,2013-04-04 20:04:00,
2013-04-04 16:07:00,56.8,20.3,30.04,East,88,2.0,6.0,24,0.00,,,0.00,Wunderground v.1.15,2013-04-04 20:07:00,
2013-04-04 16:08:00,56.8,21.3,30.04,East,88,2.0,6.0,25,0.00,,,0.00,Wunderground v.1.15,2013-04-04 20:08:00,
2013-04-04 16:09:00,56.7,19.3,30.04,East,88,2.0,6.0,23,0.00,,,0.00,Wunderground v.1.15,2013-04-04 20:09:00,
2013-04-04 16:10:00,56.7,19.3,30.04,East,88,2.0,2.0,23,0.00,,,0.00,Wunderground v.1.15,2013-04-04 20:10:00,
2013-04-04 16:13:00,56.8,19.3,30.04,East,89,1.0,2.0,23,0.00,,,0.00,Wunderground v.1.15,2013-04-04 20:13:00,
2013-04-04 16:14:00,57.0,19.5,30.04,East,89,1.0,2.0,23,0.00,,,0.00,Wunderground v.1.15,2013-04-04 20:14:00,
2013-04-04 16:16:00,57.0,18.5,30.03,ENE,68,1.0,6.0,22,0.00,,,0.00,Wunderground v.1.15,2013-04-04 20:16:00,
2013-04-04 16:19:00,57.0,18.5,30.03,East,80,1.0,6.0,22,0.00,,,0.00,Wunderground v.1.15,2013-04-04 20:19:00,
2013-04-04 16:22:00,57.4,19.9,30.03,SSE,157,1.0,1.0,23,0.00,,,0.00,Wunderground v.1.15,2013-04-04 20:22:00,
2013-04-04 16:23:00,57.5,20.9,30.03,NW,319,1.0,3.0,24,0.00,,,0.00,Wunderground v.1.15,2013-04-04 20:23:00,
2013-04-04 16:24:00,57.7,19.1,30.03,NNW,332,1.0,3.0,22,0.00,,,0.00,Wunderground v.1.15,2013-04-04 20:24:00,
2013-04-04 16:27:00,58.0,19.3,30.03,NNW,337,1.0,3.0,22,0.00,,,0.00,Wunderground v.1.15,2013-04-04 20:27:00,
2013-04-04 16:29:00,58.0,18.2,30.03,East,96,1.0,3.0,21,0.00,,,0.00,Wunderground v.1.15,2013-04-04 20:29:00,
2013-04-04 16:33:00,58.0,18.2,30.03,ESE,116,1.0,1.0,21,0.00,,,0.00,Wunderground v.1.15,2013-04-04 20:33:00,
2013-04-04 16:35:00,57.8,19.1,30.03,ESE,109,0.0,2.0,22,0.00,,,0.00,Wunderground v.1.15,2013-04-04 20:35:00,
2013-04-04 16:37:00,57.7,20.1,30.03,ESE,114,1.0,5.0,23,0.00,,,0.00,Wunderground v.1.15,2013-04-04 20:37:00,
2013-04-04 16:38:00,57.7,18.0,30.03,ESE,114,1.0,5.0,21,0.00,,,0.00,Wunderground v.1.15,2013-04-04 20:38:00,
2013-04-04 16:42:00,57.5,17.8,30.03,SSE,148,1.0,2.0,21,0.00,,,0.00,Wunderground v.1.15,2013-04-04 20:42:00,
2013-04-04 16:44:00,57.2,17.6,30.03,ESE,120,2.0,3.0,21,0.00,,,0.00,Wunderground v.1.15,2013-04-04 20:44:00,
2013-04-04 16:45:00,57.2,17.6,30.03,ESE,120,2.0,3.0,21,0.00,,,0.00,Wunderground v.1.15,2013-04-04 20:45:00,
2013-04-04 16:46:00,57.2,18.6,30.03,ESE,120,2.0,3.0,22,0.00,,,0.00,Wunderground v.1.15,2013-04-04 20:46:00,
2013-04-04 16:50:00,57.5,17.8,30.03,SE,128,1.0,2.0,21,0.00,,,0.00,Wunderground v.1.15,2013-04-04 20:50:00,
2013-04-04 16:51:00,57.5,18.9,30.03,SE,128,1.0,2.0,22,0.00,,,0.00,Wunderground v.1.15,2013-04-04 20:51:00,
2013-04-04 16:56:00,57.7,16.8,30.03,SW,226,1.0,5.0,20,0.00,,,0.00,Wunderground v.1.15,2013-04-04 20:56:00,
2013-04-04 16:57:00,57.5,17.8,30.03,SW,217,2.0,5.0,21,0.00,,,0.00,Wunderground v.1.15,2013-04-04 20:57:00,
2013-04-04 16:59:00,57.5,17.8,30.03,SW,224,3.0,7.0,21,0.00,,,0.00,Wunderground v.1.15,2013-04-04 20:59:00,
2013-04-04 17:02:00,57.4,16.6,30.02,SW,215,4.0,4.0,20,0.00,,,0.00,Wunderground v.1.15,2013-04-04 21:02:00,
2013-04-04 17:03:00,57.4,17.7,30.02,SW,216,4.0,4.0,21,0.00,,,0.00,Wunderground v.1.15,2013-04-04 21:03:00,
2013-04-04 17:05:00,57.5,16.7,30.02,SW,216,4.0,4.0,20,0.00,,,0.00,Wunderground v.1.15,2013-04-04 21:05:00,
2013-04-04 17:06:00,57.4,16.6,30.02,SW,216,3.0,4.0,20,0.00,,,0.00,Wunderground v.1.15,2013-04-04 21:06:00,
2013-04-04 17:09:00,57.5,17.8,30.02,WNW,287,2.0,4.0,21,0.00,,,0.00,Wunderground v.1.15,2013-04-04 21:09:00,
2013-04-04 17:10:00,57.7,16.8,30.02,NW,320,2.0,3.0,20,0.00,,,0.00,Wunderground v.1.15,2013-04-04 21:10:00,
2013-04-04 17:14:00,57.7,16.8,30.02,NW,312,2.0,3.0,20,0.00,,,0.00,Wunderground v.1.15,2013-04-04 21:14:00,
2013-04-04 17:15:00,57.8,18.1,30.02,NW,312,2.0,3.0,21,0.00,,,0.00,Wunderground v.1.15,2013-04-04 21:15:00,
2013-04-04 17:18:00,57.8,16.9,30.02,NW,323,3.0,3.0,20,0.00,,,0.00,Wunderground v.1.15,2013-04-04 21:18:00,
2013-04-04 17:20:00,57.8,16.9,30.02,NW,304,2.0,2.0,20,0.00,,,0.00,Wunderground v.1.15,2013-04-04 21:20:00,
2013-04-04 17:21:00,57.8,16.9,30.02,NW,304,2.0,2.0,20,0.00,,,0.00,Wunderground v.1.15,2013-04-04 21:21:00,
2013-04-04 17:25:00,58.3,17.3,30.02,NW,304,1.0,2.0,20,0.00,,,0.00,Wunderground v.1.15,2013-04-04 21:25:00,
2013-04-04 17:26:00,58.5,17.5,30.02,NW,304,1.0,2.0,20,0.00,,,0.00,Wunderground v.1.15,2013-04-04 21:26:00,
2013-04-04 17:27:00,58.5,17.5,30.02,NW,320,1.0,2.0,20,0.00,,,0.00,Wunderground v.1.15,2013-04-04 21:27:00,
2013-04-04 17:28:00,58.5,18.6,30.02,NW,320,0.0,2.0,21,0.00,,,0.00,Wunderground v.1.15,2013-04-04 21:28:00,
2013-04-04 17:31:00,58.6,19.8,30.01,NE,45,0.0,0.0,22,0.00,,,0.00,Wunderground v.1.15,2013-04-04 21:31:00,
2013-04-04 17:32:00,58.6,18.7,30.01,NE,45,0.0,0.0,21,0.00,,,0.00,Wunderground v.1.15,2013-04-04 21:32:00,
2013-04-04 17:37:00,58.8,18.9,30.01,NE,47,0.0,0.0,21,0.00,,,0.00,Wunderground v.1.15,2013-04-04 21:37:00,
2013-04-04 17:39:00,58.6,19.8,30.01,East,97,0.0,3.0,22,0.00,,,0.00,Wunderground v.1.15,2013-04-04 21:39:00,
2013-04-04 17:42:00,58.5,17.5,30.01,ESE,113,1.0,1.0,20,0.00,,,0.00,Wunderground v.1.15,2013-04-04 21:42:00,
2013-04-04 17:46:00,58.6,18.7,30.01,ESE,113,1.0,2.0,21,0.00,,,0.00,Wunderground v.1.15,2013-04-04 21:46:00,
2013-04-04 17:49:00,58.1,17.2,30.01,ESE,114,2.0,6.0,20,0.00,,,0.00,Wunderground v.1.15,2013-04-04 21:49:00,
2013-04-04 17:50:00,58.0,17.1,30.01,ESE,114,2.0,2.0,20,0.00,,,0.00,Wunderground v.1.15,2013-04-04 21:50:00,
2013-04-04 17:52:00,57.8,16.9,30.01,SE,126,2.0,4.0,20,0.00,,,0.00,Wunderground v.1.15,2013-04-04 21:52:00,
2013-04-04 17:53:00,57.7,16.8,30.01,ESE,104,2.0,4.0,20,0.00,,,0.00,Wunderground v.1.15,2013-04-04 21:53:00,
2013-04-04 17:56:00,57.7,16.8,30.01,ESE,104,2.0,4.0,20,0.00,,,0.00,Wunderground v.1.15,2013-04-04 21:56:00,
2013-04-04 17:58:00,57.7,18.0,30.01,ESE,106,2.0,4.0,21,0.00,,,0.00,Wunderground v.1.15,2013-04-04 21:58:00,
2013-04-04 17:59:00,57.8,16.9,30.01,ESE,106,1.0,4.0,20,0.00,,,0.00,Wunderground v.1.15,2013-04-04 21:59:00,
2013-04-04 18:05:00,58.1,17.2,30.01,East,92,1.0,6.0,20,0.00,,,0.00,Wunderground v.1.15,2013-04-04 22:05:00,
2013-04-04 18:06:00,58.1,18.3,30.01,East,92,1.0,6.0,21,0.00,,,0.00,Wunderground v.1.15,2013-04-04 22:06:00,
2013-04-04 18:11:00,58.1,17.2,30.01,East,92,1.0,1.0,20,0.00,,,0.00,Wunderground v.1.15,2013-04-04 22:11:00,
2013-04-04 18:15:00,58.6,17.6,30.01,SW,224,1.0,3.0,20,0.00,,,0.00,Wunderground v.1.15,2013-04-04 22:15:00,
2013-04-04 18:18:00,58.8,17.8,30.01,WSW,237,1.0,3.0,20,0.00,,,0.00,Wunderground v.1.15,2013-04-04 22:18:00,
2013-04-04 18:23:00,58.6,17.6,30.01,West,264,2.0,5.0,20,0.00,,,0.00,Wunderground v.1.15,2013-04-04 22:23:00,
2013-04-04 18:24:00,58.6,17.6,30.01,West,264,2.0,5.0,20,0.00,,,0.00,Wunderground v.1.15,2013-04-04 22:24:00,
2013-04-04 18:26:00,58.6,17.6,30.01,WNW,296,2.0,5.0,20,0.00,,,0.00,Wunderground v.1.15,2013-04-04 22:26:00,
2013-04-04 18:29:00,58.6,17.6,30.01,WNW,296,2.0,5.0,20,0.00,,,0.00,Wunderground v.1.15,2013-04-04 22:29:00,
2013-04-04 18:32:00,58.6,17.6,30.01,WNW,296,1.0,1.0,20,0.00,,,0.00,Wunderground v.1.15,2013-04-04 22:32:00,
2013-04-04 18:33:00,58.6,17.6,30.01,WNW,296,1.0,1.0,20,0.00,,,0.00,Wunderground v.1.15,2013-04-04 22:33:00,
2013-04-04 18:34:00,58.8,17.8,30.01,WNW,296,1.0,1.0,20,0.00,,,0.00,Wunderground v.1.15,2013-04-04 22:34:00,
2013-04-04 18:36:00,58.9,19.0,30.01,NE,42,1.0,1.0,21,0.00,,,0.00,Wunderground v.1.15,2013-04-04 22:36:00,
2013-04-04 18:37:00,58.8,17.8,30.01,NE,42,0.0,1.0,20,0.00,,,0.00,Wunderground v.1.15,2013-04-04 22:37:00,
2013-04-04 18:40:00,58.8,17.8,30.01,NE,42,0.0,0.0,20,0.00,,,0.00,Wunderground v.1.15,2013-04-04 22:40:00,
2013-04-04 18:43:00,58.6,17.6,30.01,ESE,119,0.0,3.0,20,0.00,,,0.00,Wunderground v.1.15,2013-04-04 22:43:00,
2013-04-04 18:44:00,58.5,17.5,30.01,ESE,119,1.0,3.0,20,0.00,,,0.00,Wunderground v.1.15,2013-04-04 22:44:00,
2013-04-04 18:49:00,58.3,17.3,30.01,ESE,119,1.0,3.0,20,0.00,,,0.00,Wunderground v.1.15,2013-04-04 22:49:00,
2013-04-04 18:52:00,58.1,17.2,30.01,ESE,119,1.0,1.0,20,0.00,,,0.00,Wunderground v.1.15,2013-04-04 22:52:00,
2013-04-04 18:53:00,58.1,17.2,30.01,SE,124,1.0,1.0,20,0.00,,,0.00,Wunderground v.1.15,2013-04-04 22:53:00,
2013-04-04 18:54:00,58.1,19.4,30.01,SE,124,0.0,1.0,22,0.00,,,0.00,Wunderground v.1.15,2013-04-04 22:54:00,
2013-04-04 18:56:00,57.8,18.1,30.01,SE,124,0.0,2.0,21,0.00,,,0.00,Wunderground v.1.15,2013-04-04 22:56:00,
2013-04-04 18:59:00,57.5,18.9,30.01,SE,124,0.0,2.0,22,0.00,,,0.00,Wunderground v.1.15,2013-04-04 22:59:00,
2013-04-04 19:01:00,57.4,18.8,30.01,SE,124,0.0,0.0,22,0.00,,,0.00,Wunderground v.1.15,2013-04-04 23:01:00,
2013-04-04 19:02:00,57.4,19.9,30.01,SE,124,0.0,0.0,23,0.00,,,0.00,Wunderground v.1.15,2013-04-04 23:02:00,
2013-04-04 19:05:00,57.2,20.7,30.01,SSE,160,0.0,2.0,24,0.00,,,0.00,Wunderground v.1.15,2013-04-04 23:05:00,
2013-04-04 19:07:00,57.1,21.6,30.01,SSE,160,0.0,2.0,25,0.00,,,0.00,Wunderground v.1.15,2013-04-04 23:07:00,
2013-04-04 19:09:00,57.0,21.5,30.01,SSE,160,0.0,2.0,25,0.00,,,0.00,Wunderground v.1.15,2013-04-04 23:09:00,
2013-04-04 19:10:00,57.0,21.5,30.01,SSE,160,0.0,0.0,25,0.00,,,0.00,Wunderground v.1.15,2013-04-04 23:10:00,
2013-04-04 19:12:00,57.0,21.5,30.01,SSE,160,0.0,0.0,25,0.00,,,0.00,Wunderground v.1.15,2013-04-04 23:12:00,
2013-04-04 19:13:00,56.8,21.3,30.01,SSE,160,0.0,0.0,25,0.00,,,0.00,Wunderground v.1.15,2013-04-04 23:13:00,
2013-04-04 19:17:00,56.8,21.3,30.02,SSE,160,0.0,0.0,25,0.00,,,0.00,Wunderground v.1.15,2013-04-04 23:17:00,
2013-04-04 19:18:00,56.8,21.3,30.02,SSE,160,0.0,0.0,25,0.00,,,0.00,Wunderground v.1.15,2013-04-04 23:18:00,
2013-04-04 19:22:00,56.8,21.3,30.02,SSE,160,0.0,1.0,25,0.00,,,0.00,Wunderground v.1.15,2013-04-04 23:22:00,
2013-04-04 19:23:00,56.7,23.0,30.02,SSE,160,0.0,1.0,27,0.00,,,0.00,Wunderground v.1.15,2013-04-04 23:23:00,
2013-04-04 19:29:00,56.5,22.9,30.02,SSE,160,0.0,1.0,27,0.00,,,0.00,Wunderground v.1.15,2013-04-04 23:29:00,
2013-04-04 19:31:00,56.5,22.0,30.02,SSE,160,0.0,0.0,26,0.00,,,0.00,Wunderground v.1.15,2013-04-04 23:31:00,
2013-04-04 19:32:00,56.4,21.0,30.02,SSE,160,0.0,0.0,25,0.00,,,0.00,Wunderground v.1.15,2013-04-04 23:32:00,
2013-04-04 19:33:00,56.4,21.9,30.02,SSE,160,0.0,0.0,26,0.00,,,0.00,Wunderground v.1.15,2013-04-04 23:33:00,
2013-04-04 19:38:00,56.1,21.6,30.02,SSE,160,0.0,0.0,26,0.00,,,0.00,Wunderground v.1.15,2013-04-04 23:38:00,
2013-04-04 19:39:00,56.1,21.6,30.02,SSE,160,0.0,0.0,26,0.00,,,0.00,Wunderground v.1.15,2013-04-04 23:39:00,
2013-04-04 19:41:00,55.9,21.5,30.02,SSE,160,0.0,0.0,26,0.00,,,0.00,Wunderground v.1.15,2013-04-04 23:41:00,
2013-04-04 19:42:00,55.9,21.5,30.02,SSE,160,0.0,0.0,26,0.00,,,0.00,Wunderground v.1.15,2013-04-04 23:42:00,
2013-04-04 19:43:00,55.9,22.4,30.02,SSE,160,0.0,0.0,27,0.00,,,0.00,Wunderground v.1.15,2013-04-04 23:43:00,
2013-04-04 19:45:00,55.8,22.3,30.02,SSE,160,0.0,0.0,27,0.00,,,0.00,Wunderground v.1.15,2013-04-04 23:45:00,
2013-04-04 19:47:00,55.6,21.2,30.02,SSE,160,0.0,0.0,26,0.00,,,0.00,Wunderground v.1.15,2013-04-04 23:47:00,
2013-04-04 19:48:00,55.6,22.1,30.02,SSE,160,0.0,0.0,27,0.00,,,0.00,Wunderground v.1.15,2013-04-04 23:48:00,
2013-04-04 19:50:00,55.6,21.2,30.02,SSE,160,0.0,0.0,26,0.00,,,0.00,Wunderground v.1.15,2013-04-04 23:50:00,
2013-04-04 19:53:00,55.5,22.0,30.02,SSE,160,0.0,0.0,27,0.00,,,0.00,Wunderground v.1.15,2013-04-04 23:53:00,
2013-04-04 19:54:00,55.3,21.8,30.02,SSE,160,0.0,0.0,27,0.00,,,0.00,Wunderground v.1.15,2013-04-04 23:54:00,
2013-04-04 19:55:00,55.3,21.8,30.02,SSE,160,0.0,0.0,27,0.00,,,0.00,Wunderground v.1.15,2013-04-04 23:55:00,
2013-04-04 19:56:00,55.2,21.8,30.02,SSE,160,0.0,0.0,27,0.00,,,0.00,Wunderground v.1.15,2013-04-04 23:56:00,
2013-04-04 20:01:00,55.0,21.6,30.01,SSE,160,0.0,0.0,27,0.00,,,0.00,Wunderground v.1.15,2013-04-05 00:01:00,
2013-04-04 20:03:00,54.9,21.5,30.01,SSE,160,0.0,0.0,27,0.00,,,0.00,Wunderground v.1.15,2013-04-05 00:03:00,
2013-04-04 20:05:00,54.9,21.5,30.01,SSE,160,0.0,0.0,27,0.00,,,0.00,Wunderground v.1.15,2013-04-05 00:05:00,
2013-04-04 20:07:00,54.7,21.3,30.01,SSE,160,0.0,0.0,27,0.00,,,0.00,Wunderground v.1.15,2013-04-05 00:07:00,
2013-04-04 20:08:00,54.7,21.3,30.01,SSE,160,0.0,0.0,27,0.00,,,0.00,Wunderground v.1.15,2013-04-05 00:08:00,
2013-04-04 20:10:00,54.6,21.2,30.01,SSE,160,0.0,0.0,27,0.00,,,0.00,Wunderground v.1.15,2013-04-05 00:10:00,
2013-04-04 20:11:00,54.6,21.2,30.01,SSE,160,0.0,0.0,27,0.00,,,0.00,Wunderground v.1.15,2013-04-05 00:11:00,
2013-04-04 20:13:00,54.4,21.1,30.01,SSE,160,0.0,0.0,27,0.00,,,0.00,Wunderground v.1.15,2013-04-05 00:13:00,
2013-04-04 20:15:00,54.4,21.1,30.01,SSE,160,0.0,0.0,27,0.00,,,0.00,Wunderground v.1.15,2013-04-05 00:15:00,
2013-04-04 20:17:00,54.3,21.0,30.01,SSE,160,0.0,0.0,27,0.00,,,0.00,Wunderground v.1.15,2013-04-05 00:17:00,
2013-04-04 20:18:00,54.3,21.0,30.01,SSE,160,0.0,0.0,27,0.00,,,0.00,Wunderground v.1.15,2013-04-05 00:18:00,
2013-04-04 20:19:00,54.3,21.0,30.01,SSE,160,0.0,0.0,27,0.00,,,0.00,Wunderground v.1.15,2013-04-05 00:19:00,
2013-04-04 20:24:00,54.0,21.6,30.01,SSE,160,0.0,0.0,28,0.00,,,0.00,Wunderground v.1.15,2013-04-05 00:24:00,
2013-04-04 20:25:00,53.8,21.4,30.01,SSE,160,0.0,0.0,28,0.00,,,0.00,Wunderground v.1.15,2013-04-05 00:25:00,
2013-04-04 20:26:00,53.7,22.2,30.01,SSE,160,0.0,0.0,29,0.00,,,0.00,Wunderground v.1.15,2013-04-05 00:26:00,
2013-04-04 20:28:00,53.6,22.1,30.01,SSE,160,0.0,0.0,29,0.00,,,0.00,Wunderground v.1.15,2013-04-05 00:28:00,
2013-04-04 20:30:00,53.1,22.4,30.01,SSE,160,0.0,0.0,30,0.00,,,0.00,Wunderground v.1.15,2013-04-05 00:30:00,
2013-04-04 20:33:00,52.7,23.6,30.01,SSE,160,0.0,0.0,32,0.00,,,0.00,Wunderground v.1.15,2013-04-05 00:33:00,
2013-04-04 20:34:00,52.5,23.5,30.01,SSE,160,0.0,0.0,32,0.00,,,0.00,Wunderground v.1.15,2013-04-05 00:34:00,
2013-04-04 20:37:00,52.1,23.8,30.01,SSE,160,0.0,0.0,33,0.00,,,0.00,Wunderground v.1.15,2013-04-05 00:37:00,
2013-04-04 20:39:00,51.8,24.3,30.01,SSE,160,0.0,0.0,34,0.00,,,0.00,Wunderground v.1.15,2013-04-05 00:39:00,
2013-04-04 20:41:00,51.5,25.4,30.01,SSE,160,0.0,0.0,36,0.00,,,0.00,Wunderground v.1.15,2013-04-05 00:41:00,
2013-04-04 20:46:00,50.6,26.5,30.01,SSE,160,0.0,0.0,39,0.00,,,0.00,Wunderground v.1.15,2013-04-05 00:46:00,
2013-04-04 20:47:00,50.6,27.1,30.01,SSE,160,0.0,0.0,40,0.00,,,0.00,Wunderground v.1.15,2013-04-05 00:47:00,
2013-04-04 20:49:00,50.3,27.5,30.01,SSE,160,0.0,0.0,41,0.00,,,0.00,Wunderground v.1.15,2013-04-05 00:49:00,
2013-04-04 20:51:00,50.0,27.8,30.01,SSE,160,0.0,0.0,42,0.00,,,0.00,Wunderground v.1.15,2013-04-05 00:51:00,
2013-04-04 20:53:00,49.7,28.1,30.01,SSE,160,0.0,0.0,43,0.00,,,0.00,Wunderground v.1.15,2013-04-05 00:53:00,
2013-04-04 20:54:00,49.4,27.8,30.01,SSE,160,0.0,0.0,43,0.00,,,0.00,Wunderground v.1.15,2013-04-05 00:54:00,
2013-04-04 20:57:00,49.0,27.5,30.01,SSE,160,0.0,0.0,43,0.00,,,0.00,Wunderground v.1.15,2013-04-05 00:57:00,
2013-04-04 20:59:00,48.7,27.2,30.01,SSE,160,0.0,0.0,43,0.00,,,0.00,Wunderground v.1.15,2013-04-05 00:59:00,
2013-04-04 21:00:00,48.4,26.3,30.02,SSE,160,0.0,0.0,42,0.00,,,0.00,Wunderground v.1.15,2013-04-05 01:00:00,
2013-04-04 21:03:00,48.1,27.2,30.02,SSE,160,0.0,0.0,44,0.00,,,0.00,Wunderground v.1.15,2013-04-05 01:03:00,
2013-04-04 21:06:00,47.8,26.4,30.02,SSE,160,0.0,0.0,43,0.00,,,0.00,Wunderground v.1.15,2013-04-05 01:06:00,
2013-04-04 21:07:00,47.8,26.9,30.02,SSE,160,0.0,0.0,44,0.00,,,0.00,Wunderground v.1.15,2013-04-05 01:07:00,
2013-04-04 21:10:00,47.5,26.6,30.02,SSE,160,0.0,0.0,44,0.00,,,0.00,Wunderground v.1.15,2013-04-05 01:10:00,
2013-04-04 21:12:00,47.3,27.0,30.02,SSE,160,0.0,0.0,45,0.00,,,0.00,Wunderground v.1.15,2013-04-05 01:12:00,
2013-04-04 21:13:00,47.2,27.5,30.02,SSE,160,0.0,0.0,46,0.00,,,0.00,Wunderground v.1.15,2013-04-05 01:13:00,
2013-04-04 21:14:00,47.0,27.3,30.02,SSE,160,0.0,0.0,46,0.00,,,0.00,Wunderground v.1.15,2013-04-05 01:14:00,
2013-04-04 21:19:00,46.5,27.8,30.02,SSE,160,0.0,0.0,48,0.00,,,0.00,Wunderground v.1.15,2013-04-05 01:19:00,
2013-04-04 21:21:00,46.3,28.2,30.02,SSE,160,0.0,0.0,49,0.00,,,0.00,Wunderground v.1.15,2013-04-05 01:21:00,
2013-04-04 21:25:00,45.9,28.3,30.02,SSE,160,0.0,0.0,50,0.00,,,0.00,Wunderground v.1.15,2013-04-05 01:25:00,
2013-04-04 21:26:00,45.7,28.1,30.02,SSE,160,0.0,0.0,50,0.00,,,0.00,Wunderground v.1.15,2013-04-05 01:26:00,
2013-04-04 21:29:00,45.4,26.3,30.02,SSE,160,0.0,0.0,47,0.00,,,0.00,Wunderground v.1.15,2013-04-05 01:29:00,
2013-04-04 21:31:00,45.1,28.0,30.02,SW,220,0.0,0.0,51,0.00,,,0.00,Wunderground v.1.15,2013-04-05 01:31:00,
2013-04-04 21:36:00,44.6,27.1,30.02,SW,220,0.0,0.0,50,0.00,,,0.00,Wunderground v.1.15,2013-04-05 01:36:00,
2013-04-04 21:39:00,44.4,25.9,30.02,SW,220,0.0,0.0,48,0.00,,,0.00,Wunderground v.1.15,2013-04-05 01:39:00,
2013-04-04 21:40:00,44.3,25.8,30.02,SW,220,0.0,0.0,48,0.00,,,0.00,Wunderground v.1.15,2013-04-05 01:40:00,
2013-04-04 21:42:00,44.3,25.3,30.02,SW,220,0.0,0.0,47,0.00,,,0.00,Wunderground v.1.15,2013-04-05 01:42:00,
2013-04-04 21:43:00,44.3,24.8,30.02,SW,220,0.0,0.0,46,0.00,,,0.00,Wunderground v.1.15,2013-04-05 01:43:00,
2013-04-04 21:47:00,44.1,25.6,30.02,SW,220,0.0,0.0,48,0.00,,,0.00,Wunderground v.1.15,2013-04-05 01:47:00,
2013-04-04 21:49:00,44.0,25.5,30.02,SW,220,0.0,0.0,48,0.00,,,0.00,Wunderground v.1.15,2013-04-05 01:49:00,
2013-04-04 21:55:00,44.0,24.5,30.02,SW,220,0.0,0.0,46,0.00,,,0.00,Wunderground v.1.15,2013-04-05 01:55:00,
2013-04-04 21:56:00,44.0,24.5,30.02,SW,220,0.0,0.0,46,0.00,,,0.00,Wunderground v.1.15,2013-04-05 01:56:00,
2013-04-04 21:57:00,44.0,24.5,30.02,SW,220,0.0,0.0,46,0.00,,,0.00,Wunderground v.1.15,2013-04-05 01:57:00,
2013-04-04 22:00:00,43.8,24.9,30.03,SW,220,0.0,0.0,47,0.00,,,0.00,Wunderground v.1.15,2013-04-05 02:00:00,
2013-04-04 22:01:00,43.8,24.9,30.03,SW,220,0.0,0.0,47,0.00,,,0.00,Wunderground v.1.15,2013-04-05 02:01:00,
2013-04-04 22:03:00,43.8,24.9,30.03,SW,220,0.0,0.0,47,0.00,,,0.00,Wunderground v.1.15,2013-04-05 02:03:00,
2013-04-04 22:04:00,43.7,24.8,30.03,SW,220,0.0,0.0,47,0.00,,,0.00,Wunderground v.1.15,2013-04-05 02:04:00,
2013-04-04 22:06:00,43.6,25.2,30.03,SW,220,0.0,0.0,48,0.00,,,0.00,Wunderground v.1.15,2013-04-05 02:06:00,
2013-04-04 22:09:00,43.4,25.5,30.03,SW,220,0.0,0.0,49,0.00,,,0.00,Wunderground v.1.15,2013-04-05 02:09:00,
2013-04-04 22:10:00,43.3,25.4,30.03,SW,220,0.0,0.0,49,0.00,,,0.00,Wunderground v.1.15,2013-04-05 02:10:00,
2013-04-04 22:14:00,43.1,25.7,30.03,SW,220,0.0,0.0,50,0.00,,,0.00,Wunderground v.1.15,2013-04-05 02:14:00,
2013-04-04 22:15:00,43.0,25.6,30.03,SW,220,0.0,0.0,50,0.00,,,0.00,Wunderground v.1.15,2013-04-05 02:15:00,
2013-04-04 22:16:00,43.0,25.6,30.03,SW,220,0.0,0.0,50,0.00,,,0.00,Wunderground v.1.15,2013-04-05 02:16:00,
2013-04-04 22:20:00,42.7,25.8,30.03,SW,220,0.0,0.0,51,0.00,,,0.00,Wunderground v.1.15,2013-04-05 02:20:00,
2013-04-04 22:21:00,42.7,26.7,30.03,SW,220,0.0,0.0,53,0.00,,,0.00,Wunderground v.1.15,2013-04-05 02:21:00,
2013-04-04 22:23:00,42.6,27.1,30.03,SW,220,0.0,0.0,54,0.00,,,0.00,Wunderground v.1.15,2013-04-05 02:23:00,
2013-04-04 22:28:00,42.3,26.8,30.03,SW,220,0.0,0.0,54,0.00,,,0.00,Wunderground v.1.15,2013-04-05 02:28:00,
2013-04-04 22:29:00,42.1,26.6,30.03,SW,220,0.0,0.0,54,0.00,,,0.00,Wunderground v.1.15,2013-04-05 02:29:00,
2013-04-04 22:30:00,42.1,26.6,30.03,SW,220,0.0,0.0,54,0.00,,,0.00,Wunderground v.1.15,2013-04-05 02:30:00,
2013-04-04 22:34:00,41.8,26.4,30.03,SW,220,0.0,0.0,54,0.00,,,0.00,Wunderground v.1.15,2013-04-05 02:34:00,
2013-04-04 22:35:00,41.8,26.8,30.03,SW,220,0.0,0.0,55,0.00,,,0.00,Wunderground v.1.15,2013-04-05 02:35:00,
2013-04-04 22:36:00,41.7,26.7,30.03,SW,220,0.0,0.0,55,0.00,,,0.00,Wunderground v.1.15,2013-04-05 02:36:00,
2013-04-04 22:37:00,41.7,27.1,30.03,SW,220,0.0,0.0,56,0.00,,,0.00,Wunderground v.1.15,2013-04-05 02:37:00,
2013-04-04 22:41:00,41.4,27.3,30.03,SW,220,0.0,0.0,57,0.00,,,0.00,Wunderground v.1.15,2013-04-05 02:41:00,
2013-04-04 22:44:00,41.1,26.6,30.03,SW,220,0.0,0.0,56,0.00,,,0.00,Wunderground v.1.15,2013-04-05 02:44:00,
2013-04-04 22:46:00,41.0,26.5,30.03,SW,220,0.0,0.0,56,0.00,,,0.00,Wunderground v.1.15,2013-04-05 02:46:00,
2013-04-04 22:47:00,41.0,26.5,30.03,SW,220,0.0,0.0,56,0.00,,,0.00,Wunderground v.1.15,2013-04-05 02:47:00,
2013-04-04 22:50:00,40.7,26.6,30.03,SW,220,0.0,0.0,57,0.00,,,0.00,Wunderground v.1.15,2013-04-05 02:50:00,
2013-04-04 22:51:00,40.7,26.6,30.03,SW,220,0.0,0.0,57,0.00,,,0.00,Wunderground v.1.15,2013-04-05 02:51:00,
2013-04-04 22:52:00,40.7,26.6,30.03,SW,220,0.0,0.0,57,0.00,,,0.00,Wunderground v.1.15,2013-04-05 02:52:00,
2013-04-04 22:53:00,40.6,26.5,30.03,SW,220,0.0,0.0,57,0.00,,,0.00,Wunderground v.1.15,2013-04-05 02:53:00,
2013-04-04 22:57:00,40.3,27.1,30.03,SW,220,0.0,0.0,59,0.00,,,0.00,Wunderground v.1.15,2013-04-05 02:57:00,
2013-04-04 23:00:00,40.0,26.4,30.03,SW,220,0.0,0.0,58,0.00,,,0.00,Wunderground v.1.15,2013-04-05 03:00:00,
2013-04-04 23:01:00,40.0,26.4,30.03,SW,220,0.0,0.0,58,0.00,,,0.00,Wunderground v.1.15,2013-04-05 03:01:00,
2013-04-04 23:02:00,40.0,26.4,30.03,SW,220,0.0,0.0,58,0.00,,,0.00,Wunderground v.1.15,2013-04-05 03:02:00,
2013-04-04 23:06:00,39.8,27.0,30.03,SW,220,0.0,0.0,60,0.00,,,0.00,Wunderground v.1.15,2013-04-05 03:06:00,
2013-04-04 23:07:00,39.7,26.9,30.03,SW,220,0.0,0.0,60,0.00,,,0.00,Wunderground v.1.15,2013-04-05 03:07:00,
2013-04-04 23:08:00,39.7,26.9,30.03,SW,220,0.0,0.0,60,0.00,,,0.00,Wunderground v.1.15,2013-04-05 03:08:00,
2013-04-04 23:13:00,39.4,26.7,30.03,SW,220,0.0,0.0,60,0.00,,,0.00,Wunderground v.1.15,2013-04-05 03:13:00,
2013-04-04 23:14:00,39.4,26.2,30.03,SW,220,0.0,0.0,59,0.00,,,0.00,Wunderground v.1.15,2013-04-05 03:14:00,
2013-04-04 23:17:00,39.3,26.6,30.02,SW,220,0.0,0.0,60,0.00,,,0.00,Wunderground v.1.15,2013-04-05 03:17:00,
2013-04-04 23:18:00,39.1,26.4,30.02,SW,220,0.0,0.0,60,0.00,,,0.00,Wunderground v.1.15,2013-04-05 03:18:00,
2013-04-04 23:22:00,39.0,26.7,30.02,SW,220,0.0,0.0,61,0.00,,,0.00,Wunderground v.1.15,2013-04-05 03:22:00,
2013-04-04 23:24:00,38.8,26.5,30.02,SW,220,0.0,0.0,61,0.00,,,0.00,Wunderground v.1.15,2013-04-05 03:24:00,
2013-04-04 23:26:00,38.7,27.2,30.02,SW,220,0.0,0.0,63,0.00,,,0.00,Wunderground v.1.15,2013-04-05 03:26:00,
2013-04-04 23:27:00,38.7,27.2,30.02,SW,220,0.0,0.0,63,0.00,,,0.00,Wunderground v.1.15,2013-04-05 03:27:00,
2013-04-04 23:32:00,38.3,26.4,30.02,SW,220,0.0,0.0,62,0.00,,,0.00,Wunderground v.1.15,2013-04-05 03:32:00,
2013-04-04 23:33:00,38.3,26.4,30.02,SW,220,0.0,0.0,62,0.00,,,0.00,Wunderground v.1.15,2013-04-05 03:33:00,
2013-04-04 23:34:00,38.3,26.4,30.02,SW,220,0.0,0.0,62,0.00,,,0.00,Wunderground v.1.15,2013-04-05 03:34:00,
2013-04-04 23:35:00,38.1,26.2,30.02,SW,220,0.0,0.0,62,0.00,,,0.00,Wunderground v.1.15,2013-04-05 03:35:00,
2013-04-04 23:39:00,38.0,26.5,30.02,SW,220,0.0,0.0,63,0.00,,,0.00,Wunderground v.1.15,2013-04-05 03:39:00,
2013-04-04 23:40:00,38.0,26.5,30.02,SW,220,0.0,0.0,63,0.00,,,0.00,Wunderground v.1.15,2013-04-05 03:40:00,
2013-04-04 23:44:00,37.8,26.7,30.02,SW,220,0.0,0.0,64,0.00,,,0.00,Wunderground v.1.15,2013-04-05 03:44:00,
2013-04-04 23:45:00,37.8,26.7,30.02,SW,220,0.0,0.0,64,0.00,,,0.00,Wunderground v.1.15,2013-04-05 03:45:00,
2013-04-04 23:47:00,37.7,26.6,30.02,SW,220,0.0,0.0,64,0.00,,,0.00,Wunderground v.1.15,2013-04-05 03:47:00,
2013-04-04 23:48:00,37.7,27.0,30.02,SW,220,0.0,0.0,65,0.00,,,0.00,Wunderground v.1.15,2013-04-05 03:48:00,
2013-04-04 23:51:00,37.5,26.4,30.02,SW,220,0.0,0.0,64,0.00,,,0.00,Wunderground v.1.15,2013-04-05 03:51:00,
2013-04-04 23:56:00,37.5,26.4,30.02,SW,220,0.0,0.0,64,0.00,,,0.00,Wunderground v.1.15,2013-04-05 03:56:00,
2013-04-04 23:57:00,37.4,26.3,30.02,SW,220,0.0,0.0,64,0.00,,,0.00,Wunderground v.1.15,2013-04-05 03:57:00,
2013-04-04 23:58:00,37.4,26.3,30.02,SW,220,0.0,0.0,64,0.00,,,0.00,Wunderground v.1.15,2013-04-05 03:58:00,
2013-04-04 23:59:00,37.4,26.3,30.02,SW,220,0.0,0.0,64,0.00,,,0.00,Wunderground v.1.15,2013-04-05 03:59:00,